<?xml version='1.0' encoding='UTF-8'?><gpx version="1.1" creator="JPX - https://github.com/jenetics/jpx" xmlns="http://www.topografix.com/GPX/1/1"><trk><trkseg><trkpt lat="44.93065683671373" lon="9.024159457969832"><ele>156.83333333333334</ele><time>2026-04-18T12:12:59.999Z</time></trkpt><trkpt lat="44.93058482273958" lon="9.024127929862557"><ele>156.66666666666669</ele><time>2026-04-18T12:13:01.999Z</time></trkpt><trkpt lat="44.930560079698466" lon="9.024040639206566"><ele>156.5</ele><time>2026-04-18T12:13:04.999Z</time></trkpt><trkpt lat="44.93054182390406" lon="9.023918612956077"><ele>156.33333333333334</ele><time>2026-04-18T12:13:06.999Z</time></trkpt><trkpt lat="44.93055921714517" lon="9.023759330218395"><ele>156.16666666666666</ele><time>2026-04-18T12:13:08.998Z</time></trkpt><trkpt lat="44.930562629641564" lon="9.023665525490305"><ele>156.0</ele><time>2026-04-18T12:13:09.998Z</time></trkpt><trkpt lat="44.93062258364703" lon="9.023500721522664"><ele>156.0</ele><time>2026-04-18T12:13:11.998Z</time></trkpt><trkpt lat="44.93063294276902" lon="9.023399336481218"><ele>156.0</ele><time>2026-04-18T12:13:12.998Z</time></trkpt><trkpt lat="44.9306443008942" lon="9.023292030932238"><ele>156.0</ele><time>2026-04-18T12:13:13.998Z</time></trkpt><trkpt lat="44.9306562662168" lon="9.02317898890684"><ele>156.0</ele><time>2026-04-18T12:13:14.998Z</time></trkpt><trkpt lat="44.93066700401605" lon="9.023060479027913"><ele>156.0</ele><time>2026-04-18T12:13:15.998Z</time></trkpt><trkpt lat="44.93067410224475" lon="9.022956247132404"><ele>156.0</ele><time>2026-04-18T12:13:16.998Z</time></trkpt><trkpt lat="44.93067882273782" lon="9.022852489313987"><ele>155.5</ele><time>2026-04-18T12:13:17.998Z</time></trkpt><trkpt lat="44.93068305794238" lon="9.022691331753203"><ele>155.0</ele><time>2026-04-18T12:13:19.998Z</time></trkpt><trkpt lat="44.93068491064863" lon="9.02255998827002"><ele>154.5</ele><time>2026-04-18T12:13:21.998Z</time></trkpt><trkpt lat="44.93050452578111" lon="9.022521167603562"><ele>154.0</ele><time>2026-04-18T12:13:23.998Z</time></trkpt><trkpt lat="44.930425797263304" lon="9.022519450029632"><ele>154.0</ele><time>2026-04-18T12:13:24.998Z</time></trkpt><trkpt lat="44.93035043896251" lon="9.02248275827952"><ele>154.0</ele><time>2026-04-18T12:13:25.998Z</time></trkpt><trkpt lat="44.93029011665135" lon="9.022431435920522"><ele>154.0</ele><time>2026-04-18T12:13:26.998Z</time></trkpt><trkpt lat="44.930237355557225" lon="9.022352531743618"><ele>154.0</ele><time>2026-04-18T12:13:27.998Z</time></trkpt><trkpt lat="44.930208876073536" lon="9.022271242093844"><ele>154.0</ele><time>2026-04-18T12:13:28.998Z</time></trkpt><trkpt lat="44.93021058361108" lon="9.022103590268815"><ele>154.0</ele><time>2026-04-18T12:13:30.998Z</time></trkpt><trkpt lat="44.93020363326474" lon="9.021996330180922"><ele>153.71428571428572</ele><time>2026-04-18T12:13:31.998Z</time></trkpt><trkpt lat="44.93019630469773" lon="9.02188323329359"><ele>153.42857142857144</ele><time>2026-04-18T12:13:32.998Z</time></trkpt><trkpt lat="44.93018851434931" lon="9.021768480519054"><ele>153.14285714285714</ele><time>2026-04-18T12:13:33.998Z</time></trkpt><trkpt lat="44.93018070731642" lon="9.021664731635344"><ele>152.85714285714286</ele><time>2026-04-18T12:13:34.998Z</time></trkpt><trkpt lat="44.93017381602679" lon="9.021573152194609"><ele>152.57142857142858</ele><time>2026-04-18T12:13:35.998Z</time></trkpt><trkpt lat="44.93016625474566" lon="9.021472669138207"><ele>152.28571428571428</ele><time>2026-04-18T12:13:36.998Z</time></trkpt><trkpt lat="44.93015878626152" lon="9.021373419270834"><ele>152.0</ele><time>2026-04-18T12:13:37.998Z</time></trkpt><trkpt lat="44.93015243451524" lon="9.021280684853833"><ele>151.83333333333331</ele><time>2026-04-18T12:13:38.998Z</time></trkpt><trkpt lat="44.93014643913576" lon="9.021191817843208"><ele>151.66666666666666</ele><time>2026-04-18T12:13:39.998Z</time></trkpt><trkpt lat="44.93014054020869" lon="9.021084919523787"><ele>151.5</ele><time>2026-04-18T12:13:40.998Z</time></trkpt><trkpt lat="44.930134808820746" lon="9.020977421027975"><ele>151.33333333333334</ele><time>2026-04-18T12:13:41.998Z</time></trkpt><trkpt lat="44.930129980588816" lon="9.020886862241772"><ele>151.16666666666669</ele><time>2026-04-18T12:13:42.998Z</time></trkpt><trkpt lat="44.93012247538703" lon="9.020746093950454"><ele>151.0</ele><time>2026-04-18T12:13:44.997Z</time></trkpt><trkpt lat="44.93011483948951" lon="9.020631623758037"><ele>150.83333333333334</ele><time>2026-04-18T12:13:46.997Z</time></trkpt><trkpt lat="44.93010310257058" lon="9.02047733335685"><ele>150.66666666666669</ele><time>2026-04-18T12:13:48.997Z</time></trkpt><trkpt lat="44.93009122193854" lon="9.020367040054957"><ele>150.5</ele><time>2026-04-18T12:14:05.997Z</time></trkpt><trkpt lat="44.93007225916738" lon="9.020232919382156"><ele>150.33333333333334</ele><time>2026-04-18T12:14:09.997Z</time></trkpt><trkpt lat="44.93010275329665" lon="9.020143647889565"><ele>150.16666666666666</ele><time>2026-04-18T12:14:10.997Z</time></trkpt><trkpt lat="44.930046922349945" lon="9.020066209194287"><ele>150.0</ele><time>2026-04-18T12:14:11.997Z</time></trkpt><trkpt lat="44.9299442240414" lon="9.020007699289216"><ele>150.33333333333334</ele><time>2026-04-18T12:14:13.997Z</time></trkpt><trkpt lat="44.929890181765366" lon="9.020054557304153"><ele>150.66666666666666</ele><time>2026-04-18T12:14:14.997Z</time></trkpt><trkpt lat="44.929851479342766" lon="9.02012960673089"><ele>151.0</ele><time>2026-04-18T12:14:15.997Z</time></trkpt><trkpt lat="44.929816170639285" lon="9.02021728781879"><ele>151.33333333333331</ele><time>2026-04-18T12:14:16.997Z</time></trkpt><trkpt lat="44.92977660759745" lon="9.020293137358301"><ele>151.66666666666666</ele><time>2026-04-18T12:14:17.997Z</time></trkpt><trkpt lat="44.929695803606904" lon="9.020378043905504"><ele>152.0</ele><time>2026-04-18T12:14:19.997Z</time></trkpt><trkpt lat="44.929603010285376" lon="9.020470244299998"><ele>152.0</ele><time>2026-04-18T12:14:21.999Z</time></trkpt><trkpt lat="44.92953711937077" lon="9.020552660234188"><ele>152.0</ele><time>2026-04-18T12:14:22.999Z</time></trkpt><trkpt lat="44.9294690515454" lon="9.020642918255598"><ele>152.0</ele><time>2026-04-18T12:14:23.999Z</time></trkpt><trkpt lat="44.92939077961483" lon="9.020748793753175"><ele>152.0</ele><time>2026-04-18T12:14:24.999Z</time></trkpt><trkpt lat="44.929309593892675" lon="9.020846450262114"><ele>152.0</ele><time>2026-04-18T12:14:25.999Z</time></trkpt><trkpt lat="44.9292254423957" lon="9.020949007801237"><ele>152.4</ele><time>2026-04-18T12:14:26.999Z</time></trkpt><trkpt lat="44.92914058403507" lon="9.021059007413262"><ele>152.79999999999998</ele><time>2026-04-18T12:14:27.999Z</time></trkpt><trkpt lat="44.92905621027116" lon="9.02116671716776"><ele>153.2</ele><time>2026-04-18T12:14:28.999Z</time></trkpt><trkpt lat="44.928975321883904" lon="9.0212632220118"><ele>153.6</ele><time>2026-04-18T12:14:29.999Z</time></trkpt><trkpt lat="44.928896406082494" lon="9.021365808468843"><ele>154.0</ele><time>2026-04-18T12:14:30.999Z</time></trkpt><trkpt lat="44.92880998064763" lon="9.021471533179692"><ele>154.0</ele><time>2026-04-18T12:14:31.999Z</time></trkpt><trkpt lat="44.92872330736126" lon="9.021582187291576"><ele>154.0</ele><time>2026-04-18T12:14:32.999Z</time></trkpt><trkpt lat="44.928635324750765" lon="9.021691222475171"><ele>154.0</ele><time>2026-04-18T12:14:33.999Z</time></trkpt><trkpt lat="44.928541562884725" lon="9.021804864290036"><ele>154.0</ele><time>2026-04-18T12:14:34.999Z</time></trkpt><trkpt lat="44.92843796368405" lon="9.02193078316457"><ele>154.25</ele><time>2026-04-18T12:14:35.999Z</time></trkpt><trkpt lat="44.92833378598016" lon="9.022058651076271"><ele>154.5</ele><time>2026-04-18T12:14:36.999Z</time></trkpt><trkpt lat="44.92822758812016" lon="9.022189207896856"><ele>154.75</ele><time>2026-04-18T12:14:37.999Z</time></trkpt><trkpt lat="44.928118852704785" lon="9.022324929514237"><ele>155.0</ele><time>2026-04-18T12:14:38.999Z</time></trkpt><trkpt lat="44.92800856252399" lon="9.022464451620117"><ele>155.0</ele><time>2026-04-18T12:14:39.999Z</time></trkpt><trkpt lat="44.92790332085093" lon="9.022593298950484"><ele>155.0</ele><time>2026-04-18T12:14:40.999Z</time></trkpt><trkpt lat="44.92778800154648" lon="9.022731672578493"><ele>155.0</ele><time>2026-04-18T12:14:41.999Z</time></trkpt><trkpt lat="44.92768459405017" lon="9.02286178482069"><ele>155.0</ele><time>2026-04-18T12:14:42.999Z</time></trkpt><trkpt lat="44.927577871106806" lon="9.022992986309044"><ele>155.0</ele><time>2026-04-18T12:14:43.999Z</time></trkpt><trkpt lat="44.927467174559204" lon="9.02313091803739"><ele>155.0</ele><time>2026-04-18T12:14:44.999Z</time></trkpt><trkpt lat="44.927363305552674" lon="9.023255623231181"><ele>155.0</ele><time>2026-04-18T12:14:45.999Z</time></trkpt><trkpt lat="44.92725117038918" lon="9.023390649033406"><ele>155.0</ele><time>2026-04-18T12:14:46.999Z</time></trkpt><trkpt lat="44.92714217487989" lon="9.02352408916044"><ele>155.25</ele><time>2026-04-18T12:14:47.999Z</time></trkpt><trkpt lat="44.927035816663796" lon="9.023655217019666"><ele>155.5</ele><time>2026-04-18T12:14:48.999Z</time></trkpt><trkpt lat="44.92692180313479" lon="9.023796440898868"><ele>155.75</ele><time>2026-04-18T12:14:49.999Z</time></trkpt><trkpt lat="44.92680939891892" lon="9.023938783534875"><ele>156.0</ele><time>2026-04-18T12:14:50.999Z</time></trkpt><trkpt lat="44.92669791836357" lon="9.024080540999739"><ele>156.33333333333334</ele><time>2026-04-18T12:14:51.999Z</time></trkpt><trkpt lat="44.926583295807674" lon="9.024223528706203"><ele>156.66666666666669</ele><time>2026-04-18T12:14:52.999Z</time></trkpt><trkpt lat="44.92646284196311" lon="9.024375412313983"><ele>157.0</ele><time>2026-04-18T12:14:53.999Z</time></trkpt><trkpt lat="44.926344415478795" lon="9.024517255451897"><ele>157.0</ele><time>2026-04-18T12:14:54.999Z</time></trkpt><trkpt lat="44.92623136794719" lon="9.024655424982821"><ele>157.0</ele><time>2026-04-18T12:14:55.999Z</time></trkpt><trkpt lat="44.92611832256991" lon="9.024791734155835"><ele>157.0</ele><time>2026-04-18T12:14:56.999Z</time></trkpt><trkpt lat="44.926002200543685" lon="9.024926313473982"><ele>157.0</ele><time>2026-04-18T12:14:57.999Z</time></trkpt><trkpt lat="44.92589120548875" lon="9.025063541075532"><ele>157.0</ele><time>2026-04-18T12:14:58.999Z</time></trkpt><trkpt lat="44.925777119551974" lon="9.025203882407098"><ele>157.0</ele><time>2026-04-18T12:14:59.999Z</time></trkpt><trkpt lat="44.925666121063976" lon="9.025334693831558"><ele>157.0</ele><time>2026-04-18T12:15:00.999Z</time></trkpt><trkpt lat="44.92555466796009" lon="9.025470443190533"><ele>157.0</ele><time>2026-04-18T12:15:01.999Z</time></trkpt><trkpt lat="44.92543769526823" lon="9.025613864162915"><ele>157.0</ele><time>2026-04-18T12:15:02.999Z</time></trkpt><trkpt lat="44.925325035000625" lon="9.025751483940493"><ele>157.0</ele><time>2026-04-18T12:15:03.999Z</time></trkpt><trkpt lat="44.92521055339296" lon="9.02589682412994"><ele>157.0</ele><time>2026-04-18T12:15:04.999Z</time></trkpt><trkpt lat="44.92509705432047" lon="9.026033734413316"><ele>157.0</ele><time>2026-04-18T12:15:05.999Z</time></trkpt><trkpt lat="44.92498174138" lon="9.026180315206894"><ele>157.0</ele><time>2026-04-18T12:15:06.999Z</time></trkpt><trkpt lat="44.924864955373415" lon="9.026322287224241"><ele>157.0</ele><time>2026-04-18T12:15:07.999Z</time></trkpt><trkpt lat="44.92474566772942" lon="9.026461138592085"><ele>157.0</ele><time>2026-04-18T12:15:08.999Z</time></trkpt><trkpt lat="44.92462686875195" lon="9.026605056306018"><ele>157.0</ele><time>2026-04-18T12:15:09.999Z</time></trkpt><trkpt lat="44.924517547072675" lon="9.026751931094775"><ele>157.0</ele><time>2026-04-18T12:15:10.999Z</time></trkpt><trkpt lat="44.92441040666794" lon="9.026888431800371"><ele>157.25</ele><time>2026-04-18T12:15:11.998Z</time></trkpt><trkpt lat="44.924300000138274" lon="9.027018221596938"><ele>157.5</ele><time>2026-04-18T12:15:12.998Z</time></trkpt><trkpt lat="44.9241887503797" lon="9.027153890160701"><ele>157.75</ele><time>2026-04-18T12:15:13.998Z</time></trkpt><trkpt lat="44.92406903992684" lon="9.02729670856926"><ele>158.0</ele><time>2026-04-18T12:15:14.998Z</time></trkpt><trkpt lat="44.92395184421866" lon="9.027432551707681"><ele>158.33333333333331</ele><time>2026-04-18T12:15:15.998Z</time></trkpt><trkpt lat="44.923835656307325" lon="9.027586088131512"><ele>158.66666666666666</ele><time>2026-04-18T12:15:16.998Z</time></trkpt><trkpt lat="44.92372202407287" lon="9.027739447179359"><ele>159.0</ele><time>2026-04-18T12:15:17.998Z</time></trkpt><trkpt lat="44.92360945960105" lon="9.027877857495962"><ele>159.0</ele><time>2026-04-18T12:15:18.998Z</time></trkpt><trkpt lat="44.923495330056866" lon="9.028020488425273"><ele>159.0</ele><time>2026-04-18T12:15:19.998Z</time></trkpt><trkpt lat="44.923382691083134" lon="9.028158515427945"><ele>159.0</ele><time>2026-04-18T12:15:20.998Z</time></trkpt><trkpt lat="44.92326980494921" lon="9.028298355639214"><ele>159.75</ele><time>2026-04-18T12:15:21.998Z</time></trkpt><trkpt lat="44.923157882686425" lon="9.028446060350918"><ele>160.5</ele><time>2026-04-18T12:15:22.998Z</time></trkpt><trkpt lat="44.92304883381161" lon="9.02857929629192"><ele>161.25</ele><time>2026-04-18T12:15:23.998Z</time></trkpt><trkpt lat="44.92293860380832" lon="9.028720480520803"><ele>162.0</ele><time>2026-04-18T12:15:24.998Z</time></trkpt><trkpt lat="44.922824351469856" lon="9.028852513875686"><ele>162.0</ele><time>2026-04-18T12:15:25.998Z</time></trkpt><trkpt lat="44.92272116896879" lon="9.028977702608099"><ele>162.0</ele><time>2026-04-18T12:15:26.998Z</time></trkpt><trkpt lat="44.92262979436255" lon="9.02909751089792"><ele>162.0</ele><time>2026-04-18T12:15:27.998Z</time></trkpt><trkpt lat="44.9225429827274" lon="9.029200314400853"><ele>162.0</ele><time>2026-04-18T12:15:28.998Z</time></trkpt><trkpt lat="44.92245678220843" lon="9.029303845239582"><ele>162.2</ele><time>2026-04-18T12:15:29.998Z</time></trkpt><trkpt lat="44.92237476991528" lon="9.029403178233334"><ele>162.39999999999998</ele><time>2026-04-18T12:15:30.998Z</time></trkpt><trkpt lat="44.92229329730155" lon="9.029501066848969"><ele>162.60000000000002</ele><time>2026-04-18T12:15:31.998Z</time></trkpt><trkpt lat="44.922212033471524" lon="9.029601978248184"><ele>162.8</ele><time>2026-04-18T12:15:32.998Z</time></trkpt><trkpt lat="44.922129803606985" lon="9.029698297453242"><ele>163.0</ele><time>2026-04-18T12:15:33.998Z</time></trkpt><trkpt lat="44.92204864046705" lon="9.029795328086887"><ele>163.0</ele><time>2026-04-18T12:15:34.998Z</time></trkpt><trkpt lat="44.92196687786299" lon="9.029895637590323"><ele>163.0</ele><time>2026-04-18T12:15:35.998Z</time></trkpt><trkpt lat="44.921887604958435" lon="9.029992075998592"><ele>163.0</ele><time>2026-04-18T12:15:36.998Z</time></trkpt><trkpt lat="44.92182106981101" lon="9.030080213685942"><ele>163.0</ele><time>2026-04-18T12:15:37.998Z</time></trkpt><trkpt lat="44.92175052696371" lon="9.030169963591812"><ele>163.0</ele><time>2026-04-18T12:15:38.998Z</time></trkpt><trkpt lat="44.92167989202833" lon="9.030253803260928"><ele>163.0</ele><time>2026-04-18T12:15:39.998Z</time></trkpt><trkpt lat="44.921603513520765" lon="9.030344913188225"><ele>163.0</ele><time>2026-04-18T12:15:40.998Z</time></trkpt><trkpt lat="44.92153585714071" lon="9.030428834391369"><ele>163.0</ele><time>2026-04-18T12:15:41.998Z</time></trkpt><trkpt lat="44.92146252269671" lon="9.03051967821865"><ele>163.0</ele><time>2026-04-18T12:15:42.998Z</time></trkpt><trkpt lat="44.92138607186763" lon="9.03061015369805"><ele>163.0</ele><time>2026-04-18T12:15:43.998Z</time></trkpt><trkpt lat="44.92131375617121" lon="9.030689612788999"><ele>163.0</ele><time>2026-04-18T12:15:44.998Z</time></trkpt><trkpt lat="44.92125231358566" lon="9.030751086437576"><ele>163.0</ele><time>2026-04-18T12:15:45.998Z</time></trkpt><trkpt lat="44.921185919196056" lon="9.030812238344163"><ele>163.0</ele><time>2026-04-18T12:15:46.998Z</time></trkpt><trkpt lat="44.92111117722156" lon="9.030881832439624"><ele>163.0</ele><time>2026-04-18T12:15:47.998Z</time></trkpt><trkpt lat="44.92105281250364" lon="9.03094210886716"><ele>163.0</ele><time>2026-04-18T12:15:48.997Z</time></trkpt><trkpt lat="44.92099780690876" lon="9.03099554082817"><ele>163.0</ele><time>2026-04-18T12:15:49.997Z</time></trkpt><trkpt lat="44.920940708237026" lon="9.031047644942559"><ele>163.66666666666669</ele><time>2026-04-18T12:15:50.997Z</time></trkpt><trkpt lat="44.92085063008074" lon="9.03113191320439"><ele>164.33333333333334</ele><time>2026-04-18T12:15:52.997Z</time></trkpt><trkpt lat="44.920785196633496" lon="9.03117140497052"><ele>165.0</ele><time>2026-04-18T12:15:54.997Z</time></trkpt><trkpt lat="44.92069412093394" lon="9.031209642559402"><ele>165.66666666666666</ele><time>2026-04-18T12:15:57.997Z</time></trkpt><trkpt lat="44.920624586287886" lon="9.031158316518319"><ele>166.33333333333331</ele><time>2026-04-18T12:15:58.997Z</time></trkpt><trkpt lat="44.920556348927065" lon="9.031150542568005"><ele>167.0</ele><time>2026-04-18T12:15:59.997Z</time></trkpt><trkpt lat="44.92050050315771" lon="9.031271193212097"><ele>167.0</ele><time>2026-04-18T12:16:00.997Z</time></trkpt><trkpt lat="44.92047523315306" lon="9.03137627609529"><ele>167.0</ele><time>2026-04-18T12:16:01.997Z</time></trkpt><trkpt lat="44.920504571964536" lon="9.031506279102462"><ele>167.0</ele><time>2026-04-18T12:16:02.997Z</time></trkpt><trkpt lat="44.92047615456059" lon="9.031620873634793"><ele>167.0</ele><time>2026-04-18T12:16:03.997Z</time></trkpt><trkpt lat="44.920416709460596" lon="9.031720574212933"><ele>167.0</ele><time>2026-04-18T12:16:04.997Z</time></trkpt><trkpt lat="44.92033992945121" lon="9.031843285397896"><ele>167.25</ele><time>2026-04-18T12:16:05.997Z</time></trkpt><trkpt lat="44.92025734089964" lon="9.031948050067754"><ele>167.5</ele><time>2026-04-18T12:16:06.997Z</time></trkpt><trkpt lat="44.920181921175306" lon="9.03207646304964"><ele>167.75</ele><time>2026-04-18T12:16:07.997Z</time></trkpt><trkpt lat="44.92011227962229" lon="9.032227158317275"><ele>168.0</ele><time>2026-04-18T12:16:08.997Z</time></trkpt><trkpt lat="44.920037169558995" lon="9.032389933386915"><ele>168.5</ele><time>2026-04-18T12:16:09.997Z</time></trkpt><trkpt lat="44.91995226535512" lon="9.03255919313711"><ele>169.0</ele><time>2026-04-18T12:16:10.997Z</time></trkpt><trkpt lat="44.91986968648408" lon="9.03272038156817"><ele>169.5</ele><time>2026-04-18T12:16:11.997Z</time></trkpt><trkpt lat="44.91980012163036" lon="9.032874267985468"><ele>170.0</ele><time>2026-04-18T12:16:12.997Z</time></trkpt><trkpt lat="44.91973743040344" lon="9.033023459156372"><ele>170.0</ele><time>2026-04-18T12:16:13.997Z</time></trkpt><trkpt lat="44.91967288424056" lon="9.033169097201725"><ele>170.0</ele><time>2026-04-18T12:16:14.997Z</time></trkpt><trkpt lat="44.919605221040385" lon="9.033314563534367"><ele>170.0</ele><time>2026-04-18T12:16:15.997Z</time></trkpt><trkpt lat="44.919537039147436" lon="9.033467274312198"><ele>170.0</ele><time>2026-04-18T12:16:16.997Z</time></trkpt><trkpt lat="44.91947029538078" lon="9.033619024329788"><ele>170.75</ele><time>2026-04-18T12:16:17.997Z</time></trkpt><trkpt lat="44.91939942250488" lon="9.033776501393646"><ele>171.5</ele><time>2026-04-18T12:16:18.997Z</time></trkpt><trkpt lat="44.91932906290832" lon="9.033930748943254"><ele>172.25</ele><time>2026-04-18T12:16:19.997Z</time></trkpt><trkpt lat="44.919257600210145" lon="9.034097178352862"><ele>173.0</ele><time>2026-04-18T12:16:20.997Z</time></trkpt><trkpt lat="44.919189690514635" lon="9.034257190572824"><ele>173.0</ele><time>2026-04-18T12:16:21.997Z</time></trkpt><trkpt lat="44.919120632076314" lon="9.034414125494173"><ele>173.0</ele><time>2026-04-18T12:16:22.997Z</time></trkpt><trkpt lat="44.91904742978989" lon="9.034574348263126"><ele>173.0</ele><time>2026-04-18T12:16:23.997Z</time></trkpt><trkpt lat="44.918974990071916" lon="9.034734210055335"><ele>173.0</ele><time>2026-04-18T12:16:24.997Z</time></trkpt><trkpt lat="44.9189039678607" lon="9.034896638687181"><ele>174.5</ele><time>2026-04-18T12:16:25.996Z</time></trkpt><trkpt lat="44.918832762117056" lon="9.035063244130576"><ele>176.0</ele><time>2026-04-18T12:16:26.996Z</time></trkpt><trkpt lat="44.91876083138488" lon="9.035226368737039"><ele>177.5</ele><time>2026-04-18T12:16:27.999Z</time></trkpt><trkpt lat="44.91868707810558" lon="9.035404435921222"><ele>179.0</ele><time>2026-04-18T12:16:28.999Z</time></trkpt><trkpt lat="44.91860996260581" lon="9.035569595978812"><ele>179.0</ele><time>2026-04-18T12:16:29.999Z</time></trkpt><trkpt lat="44.91853441585967" lon="9.035737612897028"><ele>179.0</ele><time>2026-04-18T12:16:30.999Z</time></trkpt><trkpt lat="44.91846035331521" lon="9.035905003420881"><ele>179.0</ele><time>2026-04-18T12:16:31.999Z</time></trkpt><trkpt lat="44.91838512715534" lon="9.036069783746639"><ele>179.0</ele><time>2026-04-18T12:16:32.999Z</time></trkpt><trkpt lat="44.918309427267666" lon="9.036235201266921"><ele>179.0</ele><time>2026-04-18T12:16:33.999Z</time></trkpt><trkpt lat="44.91823694122151" lon="9.036398240905305"><ele>179.0</ele><time>2026-04-18T12:16:34.999Z</time></trkpt><trkpt lat="44.918172486927325" lon="9.036560503116927"><ele>179.0</ele><time>2026-04-18T12:16:35.999Z</time></trkpt><trkpt lat="44.91810846983605" lon="9.036721460919471"><ele>179.0</ele><time>2026-04-18T12:16:36.999Z</time></trkpt><trkpt lat="44.9180433955968" lon="9.036866167076251"><ele>179.79999999999998</ele><time>2026-04-18T12:16:37.999Z</time></trkpt><trkpt lat="44.91799260277047" lon="9.0369834671912"><ele>180.6</ele><time>2026-04-18T12:16:38.999Z</time></trkpt><trkpt lat="44.91796330140494" lon="9.037074642205424"><ele>181.4</ele><time>2026-04-18T12:16:39.999Z</time></trkpt><trkpt lat="44.917919616401925" lon="9.03715844576573"><ele>182.2</ele><time>2026-04-18T12:16:41.999Z</time></trkpt><trkpt lat="44.917884057665596" lon="9.037237767938112"><ele>183.0</ele><time>2026-04-18T12:16:43.999Z</time></trkpt><trkpt lat="44.918041699934356" lon="9.037415721122452"><ele>183.83333333333334</ele><time>2026-04-18T12:16:46.999Z</time></trkpt><trkpt lat="44.91807839156266" lon="9.03749964888425"><ele>184.66666666666666</ele><time>2026-04-18T12:17:08.998Z</time></trkpt><trkpt lat="44.91812246262663" lon="9.037573663209594"><ele>185.5</ele><time>2026-04-18T12:17:09.998Z</time></trkpt><trkpt lat="44.918169435932406" lon="9.037678797931976"><ele>186.33333333333331</ele><time>2026-04-18T12:17:10.998Z</time></trkpt><trkpt lat="44.91822596133576" lon="9.03779076931337"><ele>187.16666666666666</ele><time>2026-04-18T12:17:11.998Z</time></trkpt><trkpt lat="44.91828436814477" lon="9.037875909704969"><ele>188.0</ele><time>2026-04-18T12:17:12.998Z</time></trkpt><trkpt lat="44.91835461140199" lon="9.037964336003267"><ele>191.4</ele><time>2026-04-18T12:17:13.998Z</time></trkpt><trkpt lat="44.91842621587463" lon="9.03805544049256"><ele>194.8</ele><time>2026-04-18T12:17:14.998Z</time></trkpt><trkpt lat="44.91849627936952" lon="9.038148329084128"><ele>198.2</ele><time>2026-04-18T12:17:15.998Z</time></trkpt><trkpt lat="44.91856389281956" lon="9.038242365022999"><ele>201.6</ele><time>2026-04-18T12:17:16.998Z</time></trkpt><trkpt lat="44.91863293799083" lon="9.038328930300413"><ele>205.0</ele><time>2026-04-18T12:17:17.998Z</time></trkpt><trkpt lat="44.918689974610615" lon="9.0384041085071"><ele>205.83333333333331</ele><time>2026-04-18T12:17:18.998Z</time></trkpt><trkpt lat="44.9187289952269" lon="9.038477995617754"><ele>206.66666666666666</ele><time>2026-04-18T12:17:19.998Z</time></trkpt><trkpt lat="44.918744459091236" lon="9.038578531558722"><ele>207.5</ele><time>2026-04-18T12:17:20.998Z</time></trkpt><trkpt lat="44.91874701616949" lon="9.038684274429698"><ele>208.33333333333331</ele><time>2026-04-18T12:17:21.998Z</time></trkpt><trkpt lat="44.918737584777325" lon="9.038808184386884"><ele>209.16666666666666</ele><time>2026-04-18T12:17:22.998Z</time></trkpt><trkpt lat="44.91873466439297" lon="9.038939585295427"><ele>210.0</ele><time>2026-04-18T12:17:23.998Z</time></trkpt><trkpt lat="44.918730075877924" lon="9.039067658394744"><ele>210.5</ele><time>2026-04-18T12:17:24.998Z</time></trkpt><trkpt lat="44.91871341514648" lon="9.0391898555358"><ele>211.0</ele><time>2026-04-18T12:17:25.998Z</time></trkpt><trkpt lat="44.91868228188407" lon="9.039295365291254"><ele>211.5</ele><time>2026-04-18T12:17:26.998Z</time></trkpt><trkpt lat="44.918638083857516" lon="9.039387347533584"><ele>212.0</ele><time>2026-04-18T12:17:27.998Z</time></trkpt><trkpt lat="44.91858948089557" lon="9.03948632989512"><ele>212.5</ele><time>2026-04-18T12:17:28.998Z</time></trkpt><trkpt lat="44.918548437013804" lon="9.039598951096645"><ele>213.0</ele><time>2026-04-18T12:17:29.998Z</time></trkpt><trkpt lat="44.9185173385369" lon="9.039725576890769"><ele>213.0</ele><time>2026-04-18T12:17:30.998Z</time></trkpt><trkpt lat="44.918485501180186" lon="9.03985870730845"><ele>213.0</ele><time>2026-04-18T12:17:31.998Z</time></trkpt><trkpt lat="44.91845796802722" lon="9.040002557788945"><ele>213.0</ele><time>2026-04-18T12:17:32.998Z</time></trkpt><trkpt lat="44.91842868793563" lon="9.04015020723241"><ele>213.0</ele><time>2026-04-18T12:17:33.998Z</time></trkpt><trkpt lat="44.918399113928594" lon="9.040299032985173"><ele>213.0</ele><time>2026-04-18T12:17:34.998Z</time></trkpt><trkpt lat="44.91837201979214" lon="9.040443015933409"><ele>212.4</ele><time>2026-04-18T12:17:35.998Z</time></trkpt><trkpt lat="44.91833600617991" lon="9.040565350006592"><ele>211.8</ele><time>2026-04-18T12:17:36.998Z</time></trkpt><trkpt lat="44.91830775876495" lon="9.040674091006107"><ele>211.2</ele><time>2026-04-18T12:17:37.998Z</time></trkpt><trkpt lat="44.91828017393026" lon="9.040768856641904"><ele>210.6</ele><time>2026-04-18T12:17:38.998Z</time></trkpt><trkpt lat="44.91820137385411" lon="9.04090654119827"><ele>210.0</ele><time>2026-04-18T12:17:40.998Z</time></trkpt><trkpt lat="44.918142807861685" lon="9.041012687196154"><ele>210.0</ele><time>2026-04-18T12:17:41.998Z</time></trkpt><trkpt lat="44.91812250075674" lon="9.041122500115724"><ele>210.0</ele><time>2026-04-18T12:17:43.998Z</time></trkpt><trkpt lat="44.91819925504836" lon="9.04115783315324"><ele>210.0</ele><time>2026-04-18T12:17:46.998Z</time></trkpt><trkpt lat="44.918246810128906" lon="9.041096559682604"><ele>210.0</ele><time>2026-04-18T12:17:49.997Z</time></trkpt><trkpt lat="44.918348181786136" lon="9.041085964100159"><ele>210.0</ele><time>2026-04-18T12:17:52.997Z</time></trkpt><trkpt lat="44.9184182772468" lon="9.041117270561275"><ele>210.0</ele><time>2026-04-18T12:17:53.997Z</time></trkpt><trkpt lat="44.9185496661293" lon="9.041161140656257"><ele>212.66666666666666</ele><time>2026-04-18T12:17:56.997Z</time></trkpt><trkpt lat="44.91856793918937" lon="9.041277298354082"><ele>215.33333333333331</ele><time>2026-04-18T12:17:58.997Z</time></trkpt><trkpt lat="44.91862300842964" lon="9.041381466336727"><ele>218.0</ele><time>2026-04-18T12:18:00.997Z</time></trkpt><trkpt lat="44.918707048088216" lon="9.041448050698275"><ele>220.66666666666666</ele><time>2026-04-18T12:18:02.997Z</time></trkpt><trkpt lat="44.918775570250254" lon="9.041504537460508"><ele>223.33333333333331</ele><time>2026-04-18T12:18:04.997Z</time></trkpt><trkpt lat="44.91883343710043" lon="9.041552944867098"><ele>226.0</ele><time>2026-04-18T12:18:05.997Z</time></trkpt><trkpt lat="44.918898243074146" lon="9.041645667623792"><ele>229.0</ele><time>2026-04-18T12:18:07.997Z</time></trkpt><trkpt lat="44.91895964963573" lon="9.041773779658104"><ele>232.00000000000003</ele><time>2026-04-18T12:18:09.997Z</time></trkpt><trkpt lat="44.91904685641514" lon="9.04189097988479"><ele>235.00000000000003</ele><time>2026-04-18T12:18:11.997Z</time></trkpt><trkpt lat="44.91913498531828" lon="9.041985503671329"><ele>238.0</ele><time>2026-04-18T12:18:13.997Z</time></trkpt><trkpt lat="44.91922066777287" lon="9.042026943601948"><ele>241.0</ele><time>2026-04-18T12:18:15.997Z</time></trkpt><trkpt lat="44.91930523535665" lon="9.04204194505676"><ele>243.16666666666666</ele><time>2026-04-18T12:18:17.997Z</time></trkpt><trkpt lat="44.9194199155235" lon="9.04199373657939"><ele>245.33333333333331</ele><time>2026-04-18T12:18:19.997Z</time></trkpt><trkpt lat="44.91948621601133" lon="9.042013972188943"><ele>247.5</ele><time>2026-04-18T12:18:21.997Z</time></trkpt><trkpt lat="44.91958345861664" lon="9.042017665239904"><ele>249.66666666666669</ele><time>2026-04-18T12:18:23.997Z</time></trkpt><trkpt lat="44.91964941488543" lon="9.042012601636525"><ele>251.83333333333334</ele><time>2026-04-18T12:18:25.997Z</time></trkpt><trkpt lat="44.919736951989904" lon="9.042038597008345"><ele>254.0</ele><time>2026-04-18T12:18:28.996Z</time></trkpt><trkpt lat="44.91978917500337" lon="9.042094813539661"><ele>254.00000000000003</ele><time>2026-04-18T12:18:30.996Z</time></trkpt><trkpt lat="44.91983344587055" lon="9.042169398706713"><ele>254.0</ele><time>2026-04-18T12:18:32.996Z</time></trkpt><trkpt lat="44.9198236861275" lon="9.042282053512517"><ele>254.0</ele><time>2026-04-18T12:18:34.999Z</time></trkpt><trkpt lat="44.91984804547378" lon="9.042424715261683"><ele>254.0</ele><time>2026-04-18T12:18:36.999Z</time></trkpt><trkpt lat="44.91985976046012" lon="9.042529040774133"><ele>254.00000000000003</ele><time>2026-04-18T12:18:38.999Z</time></trkpt><trkpt lat="44.919911310933315" lon="9.042647214077572"><ele>254.0</ele><time>2026-04-18T12:18:42.999Z</time></trkpt><trkpt lat="44.91992582449981" lon="9.042768520468195"><ele>256.83333333333337</ele><time>2026-04-18T12:18:44.999Z</time></trkpt><trkpt lat="44.91994369469025" lon="9.042891577741239"><ele>259.6666666666667</ele><time>2026-04-18T12:18:46.999Z</time></trkpt><trkpt lat="44.91993669704067" lon="9.043016837765972"><ele>262.5</ele><time>2026-04-18T12:18:48.999Z</time></trkpt><trkpt lat="44.91991616994332" lon="9.043116399716453"><ele>265.3333333333333</ele><time>2026-04-18T12:18:50.999Z</time></trkpt><trkpt lat="44.919960728817955" lon="9.043225535778877"><ele>268.16666666666663</ele><time>2026-04-18T12:18:52.999Z</time></trkpt><trkpt lat="44.91998944960812" lon="9.043320702979626"><ele>271.0</ele><time>2026-04-18T12:18:54.999Z</time></trkpt><trkpt lat="44.9200386275876" lon="9.04341359210272"><ele>272.6</ele><time>2026-04-18T12:18:56.999Z</time></trkpt><trkpt lat="44.920099144737335" lon="9.04349655731971"><ele>274.20000000000005</ele><time>2026-04-18T12:18:59.999Z</time></trkpt><trkpt lat="44.92014319906288" lon="9.043658290560344"><ele>275.79999999999995</ele><time>2026-04-18T12:19:01.999Z</time></trkpt><trkpt lat="44.920125782239566" lon="9.043825868004044"><ele>277.4</ele><time>2026-04-18T12:19:03.999Z</time></trkpt><trkpt lat="44.920139154050744" lon="9.043962503264224"><ele>279.0</ele><time>2026-04-18T12:19:05.999Z</time></trkpt><trkpt lat="44.92013659276633" lon="9.04411376573007"><ele>282.0</ele><time>2026-04-18T12:19:07.999Z</time></trkpt><trkpt lat="44.92015257085331" lon="9.04424670981594"><ele>285.0</ele><time>2026-04-18T12:19:09.999Z</time></trkpt><trkpt lat="44.92018869582515" lon="9.044331990797005"><ele>288.0</ele><time>2026-04-18T12:19:11.999Z</time></trkpt><trkpt lat="44.92021849739666" lon="9.044486094900888"><ele>291.0</ele><time>2026-04-18T12:19:13.999Z</time></trkpt><trkpt lat="44.92027065792576" lon="9.04458436710644"><ele>294.0</ele><time>2026-04-18T12:19:15.999Z</time></trkpt><trkpt lat="44.920311209588604" lon="9.044739784897736"><ele>294.0</ele><time>2026-04-18T12:19:17.998Z</time></trkpt><trkpt lat="44.92032558875012" lon="9.044829854061598"><ele>294.0</ele><time>2026-04-18T12:19:18.998Z</time></trkpt><trkpt lat="44.92033797126089" lon="9.044971897398435"><ele>294.0</ele><time>2026-04-18T12:19:20.998Z</time></trkpt><trkpt lat="44.92037566382195" lon="9.045096336112712"><ele>294.0</ele><time>2026-04-18T12:19:22.998Z</time></trkpt><trkpt lat="44.9203910364361" lon="9.045189944883871"><ele>294.0</ele><time>2026-04-18T12:19:23.998Z</time></trkpt><trkpt lat="44.92038067648974" lon="9.045333397983896"><ele>294.0</ele><time>2026-04-18T12:19:25.998Z</time></trkpt><trkpt lat="44.9203847754116" lon="9.045467157388751"><ele>297.2</ele><time>2026-04-18T12:19:27.998Z</time></trkpt><trkpt lat="44.92046129856895" lon="9.045565982672613"><ele>300.4</ele><time>2026-04-18T12:19:30.998Z</time></trkpt><trkpt lat="44.92052964031058" lon="9.045646457585486"><ele>303.6</ele><time>2026-04-18T12:19:32.998Z</time></trkpt><trkpt lat="44.92059211206507" lon="9.045740062081482"><ele>306.8</ele><time>2026-04-18T12:19:34.998Z</time></trkpt><trkpt lat="44.920694887630816" lon="9.045836567389598"><ele>310.0</ele><time>2026-04-18T12:19:36.998Z</time></trkpt><trkpt lat="44.92073925063866" lon="9.045910908914296"><ele>314.0</ele><time>2026-04-18T12:19:37.998Z</time></trkpt><trkpt lat="44.92077121705557" lon="9.045988553920575"><ele>318.0</ele><time>2026-04-18T12:19:39.998Z</time></trkpt><trkpt lat="44.92086960871794" lon="9.046029998818558"><ele>322.0</ele><time>2026-04-18T12:19:53.998Z</time></trkpt><trkpt lat="44.92101752633843" lon="9.045970250912527"><ele>326.0</ele><time>2026-04-18T12:19:56.998Z</time></trkpt><trkpt lat="44.92114400817115" lon="9.04596197976814"><ele>330.0</ele><time>2026-04-18T12:19:58.998Z</time></trkpt><trkpt lat="44.921208673631206" lon="9.046006123783723"><ele>330.0</ele><time>2026-04-18T12:19:59.998Z</time></trkpt><trkpt lat="44.92127372314608" lon="9.046038613555812"><ele>330.0</ele><time>2026-04-18T12:20:00.998Z</time></trkpt><trkpt lat="44.92134780521124" lon="9.046147169275844"><ele>330.0</ele><time>2026-04-18T12:20:02.997Z</time></trkpt><trkpt lat="44.921382357067" lon="9.046228498125009"><ele>330.0</ele><time>2026-04-18T12:20:03.997Z</time></trkpt><trkpt lat="44.92144899435984" lon="9.046327327655533"><ele>330.0</ele><time>2026-04-18T12:20:05.997Z</time></trkpt><trkpt lat="44.92156521356554" lon="9.046259024113139"><ele>330.0</ele><time>2026-04-18T12:20:07.997Z</time></trkpt><trkpt lat="44.921691614047454" lon="9.046268494738493"><ele>330.0</ele><time>2026-04-18T12:20:09.997Z</time></trkpt><trkpt lat="44.921748314104576" lon="9.046315229757797"><ele>330.0</ele><time>2026-04-18T12:20:10.997Z</time></trkpt><trkpt lat="44.921821141933385" lon="9.046306829661866"><ele>330.0</ele><time>2026-04-18T12:20:11.997Z</time></trkpt><trkpt lat="44.921919034219236" lon="9.046251190356202"><ele>330.0</ele><time>2026-04-18T12:20:13.997Z</time></trkpt><trkpt lat="44.92199462748607" lon="9.046278405624179"><ele>330.0</ele><time>2026-04-18T12:20:14.997Z</time></trkpt><trkpt lat="44.92205295672742" lon="9.046342736072177"><ele>331.0</ele><time>2026-04-18T12:20:15.997Z</time></trkpt><trkpt lat="44.922139350933236" lon="9.046401333105843"><ele>332.0</ele><time>2026-04-18T12:20:17.997Z</time></trkpt><trkpt lat="44.92223376846206" lon="9.046412700616603"><ele>333.0</ele><time>2026-04-18T12:20:19.997Z</time></trkpt><trkpt lat="44.922295464831144" lon="9.046451654413529"><ele>334.0</ele><time>2026-04-18T12:20:20.997Z</time></trkpt><trkpt lat="44.92230186281805" lon="9.046542467802164"><ele>335.0</ele><time>2026-04-18T12:20:26.997Z</time></trkpt><trkpt lat="44.92221742036654" lon="9.046560599585247"><ele>336.0</ele><time>2026-04-18T12:20:32.997Z</time></trkpt><trkpt lat="44.92208389792756" lon="9.046618850818462"><ele>338.57142857142856</ele><time>2026-04-18T12:20:34.997Z</time></trkpt><trkpt lat="44.92201538353415" lon="9.046647796001494"><ele>341.1428571428571</ele><time>2026-04-18T12:20:35.997Z</time></trkpt><trkpt lat="44.921941973844625" lon="9.04668456504642"><ele>343.7142857142857</ele><time>2026-04-18T12:20:36.997Z</time></trkpt><trkpt lat="44.921866703273174" lon="9.046713921007703"><ele>346.2857142857143</ele><time>2026-04-18T12:20:37.997Z</time></trkpt><trkpt lat="44.921787738080084" lon="9.046742456160796"><ele>348.85714285714283</ele><time>2026-04-18T12:20:38.997Z</time></trkpt><trkpt lat="44.92171909620367" lon="9.046775937515827"><ele>351.42857142857144</ele><time>2026-04-18T12:20:39.999Z</time></trkpt><trkpt lat="44.92166030601806" lon="9.046815104890218"><ele>354.0</ele><time>2026-04-18T12:20:40.999Z</time></trkpt><trkpt lat="44.921596746291755" lon="9.046854209597413"><ele>354.0</ele><time>2026-04-18T12:20:41.999Z</time></trkpt><trkpt lat="44.92153014146901" lon="9.046883552053371"><ele>354.0</ele><time>2026-04-18T12:20:42.999Z</time></trkpt><trkpt lat="44.92145966718454" lon="9.046897854878122"><ele>354.0</ele><time>2026-04-18T12:20:43.999Z</time></trkpt><trkpt lat="44.92138687667494" lon="9.046893579283926"><ele>354.0</ele><time>2026-04-18T12:20:44.999Z</time></trkpt><trkpt lat="44.9213088180355" lon="9.04687692068571"><ele>354.0</ele><time>2026-04-18T12:20:45.999Z</time></trkpt><trkpt lat="44.92123739392382" lon="9.046866526786433"><ele>354.0</ele><time>2026-04-18T12:20:46.999Z</time></trkpt><trkpt lat="44.921161710624766" lon="9.046860267043336"><ele>354.0</ele><time>2026-04-18T12:20:47.999Z</time></trkpt><trkpt lat="44.921085919194496" lon="9.046864902958617"><ele>354.0</ele><time>2026-04-18T12:20:48.999Z</time></trkpt><trkpt lat="44.921011848304325" lon="9.046870007613984"><ele>354.0</ele><time>2026-04-18T12:20:49.999Z</time></trkpt><trkpt lat="44.92094535484291" lon="9.046886611378428"><ele>354.0</ele><time>2026-04-18T12:20:50.999Z</time></trkpt><trkpt lat="44.92087432184981" lon="9.046900569613515"><ele>354.0</ele><time>2026-04-18T12:20:51.999Z</time></trkpt><trkpt lat="44.920749289633356" lon="9.046934648523338"><ele>354.0</ele><time>2026-04-18T12:20:53.999Z</time></trkpt><trkpt lat="44.920642186309514" lon="9.046952964314709"><ele>354.0</ele><time>2026-04-18T12:20:55.999Z</time></trkpt><trkpt lat="44.920566875527015" lon="9.04696958493986"><ele>354.0</ele><time>2026-04-18T12:20:57.999Z</time></trkpt><trkpt lat="44.9204651950288" lon="9.046951191748871"><ele>354.0</ele><time>2026-04-18T12:20:59.999Z</time></trkpt><trkpt lat="44.9203381633331" lon="9.046961732079875"><ele>354.0</ele><time>2026-04-18T12:21:01.999Z</time></trkpt><trkpt lat="44.92026972537209" lon="9.046965369610962"><ele>354.0</ele><time>2026-04-18T12:21:02.999Z</time></trkpt><trkpt lat="44.920200211110924" lon="9.04697641613984"><ele>354.0</ele><time>2026-04-18T12:21:03.999Z</time></trkpt><trkpt lat="44.92012509757413" lon="9.047001942399996"><ele>354.0</ele><time>2026-04-18T12:21:04.999Z</time></trkpt><trkpt lat="44.92004890013041" lon="9.047043966787955"><ele>353.5</ele><time>2026-04-18T12:21:05.999Z</time></trkpt><trkpt lat="44.919982926131624" lon="9.047108500994046"><ele>353.0</ele><time>2026-04-18T12:21:06.999Z</time></trkpt><trkpt lat="44.91991787602117" lon="9.047176220777738"><ele>352.5</ele><time>2026-04-18T12:21:07.999Z</time></trkpt><trkpt lat="44.91985608351183" lon="9.047242742331141"><ele>352.0</ele><time>2026-04-18T12:21:08.999Z</time></trkpt><trkpt lat="44.919792387643355" lon="9.047316931386652"><ele>351.5</ele><time>2026-04-18T12:21:09.999Z</time></trkpt><trkpt lat="44.9197302084478" lon="9.047401678215754"><ele>351.0</ele><time>2026-04-18T12:21:10.999Z</time></trkpt><trkpt lat="44.91967044519622" lon="9.047474959288133"><ele>354.8333333333333</ele><time>2026-04-18T12:21:11.999Z</time></trkpt><trkpt lat="44.91960485008781" lon="9.047547054317127"><ele>358.6666666666667</ele><time>2026-04-18T12:21:12.999Z</time></trkpt><trkpt lat="44.919538961229314" lon="9.047618472385839"><ele>362.5</ele><time>2026-04-18T12:21:13.999Z</time></trkpt><trkpt lat="44.91947286842327" lon="9.047690912676606"><ele>366.33333333333337</ele><time>2026-04-18T12:21:14.999Z</time></trkpt><trkpt lat="44.919406331438445" lon="9.047760909043012"><ele>370.1666666666667</ele><time>2026-04-18T12:21:15.999Z</time></trkpt><trkpt lat="44.919335631906705" lon="9.047832747321532"><ele>374.0</ele><time>2026-04-18T12:21:16.999Z</time></trkpt><trkpt lat="44.91927060169784" lon="9.047894659464177"><ele>372.5</ele><time>2026-04-18T12:21:17.999Z</time></trkpt><trkpt lat="44.91920498051618" lon="9.04796070479242"><ele>371.0</ele><time>2026-04-18T12:21:18.999Z</time></trkpt><trkpt lat="44.919142306863094" lon="9.048030263556386"><ele>369.5</ele><time>2026-04-18T12:21:19.999Z</time></trkpt><trkpt lat="44.9190824559687" lon="9.048097634944732"><ele>368.0</ele><time>2026-04-18T12:21:20.999Z</time></trkpt><trkpt lat="44.91902684551517" lon="9.048170682575673"><ele>366.5</ele><time>2026-04-18T12:21:21.999Z</time></trkpt><trkpt lat="44.91897905609166" lon="9.048248995672992"><ele>365.0</ele><time>2026-04-18T12:21:22.999Z</time></trkpt><trkpt lat="44.91893774459749" lon="9.04832992371645"><ele>368.8</ele><time>2026-04-18T12:21:23.999Z</time></trkpt><trkpt lat="44.91888534841279" lon="9.048462171919628"><ele>372.6</ele><time>2026-04-18T12:21:25.999Z</time></trkpt><trkpt lat="44.918846076280644" lon="9.04861687335459"><ele>376.4</ele><time>2026-04-18T12:21:27.998Z</time></trkpt><trkpt lat="44.91886352214119" lon="9.048751677485082"><ele>380.2</ele><time>2026-04-18T12:21:29.998Z</time></trkpt><trkpt lat="44.91887706992674" lon="9.048895866270083"><ele>384.0</ele><time>2026-04-18T12:21:31.998Z</time></trkpt><trkpt lat="44.91888746235834" lon="9.048989569829173"><ele>384.0</ele><time>2026-04-18T12:21:32.998Z</time></trkpt><trkpt lat="44.91891709824544" lon="9.049091419160224"><ele>384.0</ele><time>2026-04-18T12:21:33.998Z</time></trkpt><trkpt lat="44.91896412801684" lon="9.049187273900378"><ele>384.0</ele><time>2026-04-18T12:21:34.998Z</time></trkpt><trkpt lat="44.91902359908093" lon="9.049268322937875"><ele>384.0</ele><time>2026-04-18T12:21:35.998Z</time></trkpt><trkpt lat="44.91908112665543" lon="9.049336847938308"><ele>384.0</ele><time>2026-04-18T12:21:36.998Z</time></trkpt><trkpt lat="44.919127715521284" lon="9.049408816535859"><ele>384.0</ele><time>2026-04-18T12:21:37.998Z</time></trkpt><trkpt lat="44.91917059204492" lon="9.049504650468686"><ele>384.3333333333333</ele><time>2026-04-18T12:21:38.998Z</time></trkpt><trkpt lat="44.919194512847625" lon="9.049613882129766"><ele>384.66666666666663</ele><time>2026-04-18T12:21:39.998Z</time></trkpt><trkpt lat="44.919194767342326" lon="9.04972800184461"><ele>385.0</ele><time>2026-04-18T12:21:40.998Z</time></trkpt><trkpt lat="44.91919691124424" lon="9.049839387247127"><ele>385.3333333333333</ele><time>2026-04-18T12:21:41.998Z</time></trkpt><trkpt lat="44.919214558019306" lon="9.049942012095684"><ele>385.66666666666663</ele><time>2026-04-18T12:21:42.998Z</time></trkpt><trkpt lat="44.91924486199925" lon="9.05003657388657"><ele>386.0</ele><time>2026-04-18T12:21:43.998Z</time></trkpt><trkpt lat="44.91928420290133" lon="9.050131215102878"><ele>390.0</ele><time>2026-04-18T12:21:44.998Z</time></trkpt><trkpt lat="44.919332114860595" lon="9.0502313734603"><ele>394.0</ele><time>2026-04-18T12:21:45.998Z</time></trkpt><trkpt lat="44.91939004506989" lon="9.050337290152862"><ele>398.0</ele><time>2026-04-18T12:21:46.998Z</time></trkpt><trkpt lat="44.91944653278379" lon="9.050459795738172"><ele>402.0</ele><time>2026-04-18T12:21:47.998Z</time></trkpt><trkpt lat="44.91949959837874" lon="9.050589841940933"><ele>406.0</ele><time>2026-04-18T12:21:48.998Z</time></trkpt><trkpt lat="44.919553123539174" lon="9.050729280683143"><ele>403.5</ele><time>2026-04-18T12:21:49.998Z</time></trkpt><trkpt lat="44.91960922285346" lon="9.050877052984518"><ele>401.0</ele><time>2026-04-18T12:21:50.998Z</time></trkpt><trkpt lat="44.91967148498597" lon="9.051018349492718"><ele>398.5</ele><time>2026-04-18T12:21:51.998Z</time></trkpt><trkpt lat="44.91973756732589" lon="9.051152112136355"><ele>396.0</ele><time>2026-04-18T12:21:52.998Z</time></trkpt><trkpt lat="44.919804278589496" lon="9.05128114012432"><ele>396.0</ele><time>2026-04-18T12:21:53.998Z</time></trkpt><trkpt lat="44.91987015208665" lon="9.051413615006947"><ele>396.0</ele><time>2026-04-18T12:21:54.998Z</time></trkpt><trkpt lat="44.919929725870986" lon="9.051544523454085"><ele>396.0</ele><time>2026-04-18T12:21:55.998Z</time></trkpt><trkpt lat="44.91996676256759" lon="9.051680214760268"><ele>396.0</ele><time>2026-04-18T12:21:56.998Z</time></trkpt><trkpt lat="44.919995305758185" lon="9.051820828763946"><ele>396.0</ele><time>2026-04-18T12:21:57.998Z</time></trkpt><trkpt lat="44.92001605091078" lon="9.05195491663444"><ele>394.4</ele><time>2026-04-18T12:21:58.998Z</time></trkpt><trkpt lat="44.92003568297132" lon="9.052083109983826"><ele>392.8</ele><time>2026-04-18T12:21:59.998Z</time></trkpt><trkpt lat="44.92005906852994" lon="9.052207414260398"><ele>391.2</ele><time>2026-04-18T12:22:00.998Z</time></trkpt><trkpt lat="44.920091207522965" lon="9.052327393337162"><ele>389.59999999999997</ele><time>2026-04-18T12:22:01.998Z</time></trkpt><trkpt lat="44.92013232157337" lon="9.052449435955754"><ele>388.0</ele><time>2026-04-18T12:22:02.998Z</time></trkpt><trkpt lat="44.92018072385768" lon="9.052572030771477"><ele>394.0</ele><time>2026-04-18T12:22:03.998Z</time></trkpt><trkpt lat="44.92023863244948" lon="9.05268603946356"><ele>400.0</ele><time>2026-04-18T12:22:04.998Z</time></trkpt><trkpt lat="44.92030780105276" lon="9.05278845533564"><ele>406.0</ele><time>2026-04-18T12:22:05.998Z</time></trkpt><trkpt lat="44.92038651031441" lon="9.052870073539836"><ele>412.0</ele><time>2026-04-18T12:22:06.998Z</time></trkpt><trkpt lat="44.9204704892223" lon="9.052948352789189"><ele>418.0</ele><time>2026-04-18T12:22:07.998Z</time></trkpt><trkpt lat="44.92055342803012" lon="9.053041691151279"><ele>418.0</ele><time>2026-04-18T12:22:08.998Z</time></trkpt><trkpt lat="44.92062026709253" lon="9.0531608461986"><ele>418.0</ele><time>2026-04-18T12:22:09.998Z</time></trkpt><trkpt lat="44.92067349542677" lon="9.053292359688779"><ele>418.0</ele><time>2026-04-18T12:22:10.998Z</time></trkpt><trkpt lat="44.920724041375536" lon="9.053422100823687"><ele>418.0</ele><time>2026-04-18T12:22:11.998Z</time></trkpt><trkpt lat="44.92077080965033" lon="9.053566016662904"><ele>418.0</ele><time>2026-04-18T12:22:12.998Z</time></trkpt><trkpt lat="44.92081003045564" lon="9.053705442295314"><ele>415.0</ele><time>2026-04-18T12:22:13.997Z</time></trkpt><trkpt lat="44.920839942476675" lon="9.053837211923199"><ele>412.0</ele><time>2026-04-18T12:22:14.997Z</time></trkpt><trkpt lat="44.920858587390306" lon="9.053968281384106"><ele>409.0</ele><time>2026-04-18T12:22:15.997Z</time></trkpt><trkpt lat="44.920872766424566" lon="9.05409506962567"><ele>406.0</ele><time>2026-04-18T12:22:16.997Z</time></trkpt><trkpt lat="44.92087988926137" lon="9.054211335879117"><ele>403.0</ele><time>2026-04-18T12:22:17.997Z</time></trkpt><trkpt lat="44.92088967453732" lon="9.05432893989869"><ele>400.50000000000006</ele><time>2026-04-18T12:22:18.997Z</time></trkpt><trkpt lat="44.920891579493095" lon="9.05444520564175"><ele>398.0</ele><time>2026-04-18T12:22:19.997Z</time></trkpt><trkpt lat="44.92088920282364" lon="9.054558360645014"><ele>395.5</ele><time>2026-04-18T12:22:20.997Z</time></trkpt><trkpt lat="44.92087348462189" lon="9.054683624457155"><ele>393.0</ele><time>2026-04-18T12:22:21.997Z</time></trkpt><trkpt lat="44.92084916018043" lon="9.054795592337415"><ele>390.50000000000006</ele><time>2026-04-18T12:22:22.997Z</time></trkpt><trkpt lat="44.920815391600755" lon="9.05492058587432"><ele>388.0</ele><time>2026-04-18T12:22:23.997Z</time></trkpt><trkpt lat="44.92078425575671" lon="9.055032026523238"><ele>386.83333333333337</ele><time>2026-04-18T12:22:24.997Z</time></trkpt><trkpt lat="44.920746489528504" lon="9.055138709465876"><ele>385.6666666666667</ele><time>2026-04-18T12:22:25.997Z</time></trkpt><trkpt lat="44.920689399126985" lon="9.05522127920068"><ele>384.5</ele><time>2026-04-18T12:22:26.997Z</time></trkpt><trkpt lat="44.92061783662826" lon="9.055288352360852"><ele>383.33333333333337</ele><time>2026-04-18T12:22:27.997Z</time></trkpt><trkpt lat="44.92053682432358" lon="9.055333823788049"><ele>382.1666666666667</ele><time>2026-04-18T12:22:28.997Z</time></trkpt><trkpt lat="44.92044751466778" lon="9.055373786368557"><ele>381.0</ele><time>2026-04-18T12:22:29.997Z</time></trkpt><trkpt lat="44.920358419363716" lon="9.055417746011525"><ele>381.0</ele><time>2026-04-18T12:22:30.997Z</time></trkpt><trkpt lat="44.920284792277805" lon="9.05545953211629"><ele>381.0</ele><time>2026-04-18T12:22:31.997Z</time></trkpt><trkpt lat="44.92022030128277" lon="9.05549755574883"><ele>381.0</ele><time>2026-04-18T12:22:32.997Z</time></trkpt><trkpt lat="44.92010898218376" lon="9.055583888818923"><ele>381.0</ele><time>2026-04-18T12:22:34.997Z</time></trkpt><trkpt lat="44.9200555047091" lon="9.055642309113205"><ele>381.0</ele><time>2026-04-18T12:22:35.997Z</time></trkpt><trkpt lat="44.920007588855356" lon="9.055709297339238"><ele>381.0</ele><time>2026-04-18T12:22:36.997Z</time></trkpt><trkpt lat="44.91996282914338" lon="9.055790435982987"><ele>380.0</ele><time>2026-04-18T12:22:37.997Z</time></trkpt><trkpt lat="44.91991991947152" lon="9.055879843802291"><ele>379.0</ele><time>2026-04-18T12:22:38.997Z</time></trkpt><trkpt lat="44.91988619555114" lon="9.05596971498379"><ele>378.0</ele><time>2026-04-18T12:22:39.997Z</time></trkpt><trkpt lat="44.91984915329535" lon="9.056068518411795"><ele>377.0</ele><time>2026-04-18T12:22:40.997Z</time></trkpt><trkpt lat="44.91980920386405" lon="9.056169057029198"><ele>376.0</ele><time>2026-04-18T12:22:41.997Z</time></trkpt><trkpt lat="44.919769391365044" lon="9.056267825797768"><ele>375.0</ele><time>2026-04-18T12:22:42.997Z</time></trkpt><trkpt lat="44.919727176362635" lon="9.056371780278903"><ele>375.0</ele><time>2026-04-18T12:22:43.997Z</time></trkpt><trkpt lat="44.91969186063011" lon="9.05647059931521"><ele>375.0</ele><time>2026-04-18T12:22:44.999Z</time></trkpt><trkpt lat="44.91964856744424" lon="9.056600218243942"><ele>375.0</ele><time>2026-04-18T12:22:45.999Z</time></trkpt><trkpt lat="44.91961296342737" lon="9.056707061282383"><ele>375.0</ele><time>2026-04-18T12:22:46.999Z</time></trkpt><trkpt lat="44.91957097805988" lon="9.056829070207428"><ele>375.0</ele><time>2026-04-18T12:22:47.999Z</time></trkpt><trkpt lat="44.91952669279335" lon="9.056951808194523"><ele>375.3333333333333</ele><time>2026-04-18T12:22:48.999Z</time></trkpt><trkpt lat="44.919487571480445" lon="9.057069961049526"><ele>375.6666666666667</ele><time>2026-04-18T12:22:49.999Z</time></trkpt><trkpt lat="44.91945601107223" lon="9.057184039690389"><ele>376.0</ele><time>2026-04-18T12:22:50.999Z</time></trkpt><trkpt lat="44.9194373900774" lon="9.057307040802279"><ele>376.33333333333337</ele><time>2026-04-18T12:22:51.999Z</time></trkpt><trkpt lat="44.91942841242771" lon="9.057415519518331"><ele>376.6666666666667</ele><time>2026-04-18T12:22:52.999Z</time></trkpt><trkpt lat="44.919432580075984" lon="9.057527057682483"><ele>377.0</ele><time>2026-04-18T12:22:53.999Z</time></trkpt><trkpt lat="44.91944275257363" lon="9.057647017050469"><ele>377.33333333333337</ele><time>2026-04-18T12:22:54.999Z</time></trkpt><trkpt lat="44.91944648176794" lon="9.057751059847826"><ele>377.6666666666667</ele><time>2026-04-18T12:22:55.999Z</time></trkpt><trkpt lat="44.91943303448821" lon="9.05785231513237"><ele>378.0</ele><time>2026-04-18T12:22:56.999Z</time></trkpt><trkpt lat="44.91942617896557" lon="9.05795782910136"><ele>378.3333333333333</ele><time>2026-04-18T12:22:57.999Z</time></trkpt><trkpt lat="44.91942392825937" lon="9.058068745020304"><ele>378.66666666666663</ele><time>2026-04-18T12:22:58.999Z</time></trkpt><trkpt lat="44.919432707247886" lon="9.058180411076938"><ele>379.0</ele><time>2026-04-18T12:22:59.999Z</time></trkpt><trkpt lat="44.91945151881021" lon="9.058288601927037"><ele>379.3333333333333</ele><time>2026-04-18T12:23:00.999Z</time></trkpt><trkpt lat="44.919482546087494" lon="9.058391725840481"><ele>379.66666666666663</ele><time>2026-04-18T12:23:01.999Z</time></trkpt><trkpt lat="44.919525897365695" lon="9.058495637503505"><ele>380.0</ele><time>2026-04-18T12:23:02.999Z</time></trkpt><trkpt lat="44.91957204155797" lon="9.058594721789193"><ele>380.3333333333333</ele><time>2026-04-18T12:23:03.999Z</time></trkpt><trkpt lat="44.91961178034453" lon="9.058677623831317"><ele>380.6666666666667</ele><time>2026-04-18T12:23:04.999Z</time></trkpt><trkpt lat="44.91965367562631" lon="9.058759239010728"><ele>381.0</ele><time>2026-04-18T12:23:05.999Z</time></trkpt><trkpt lat="44.919698330054445" lon="9.058841012126422"><ele>381.0</ele><time>2026-04-18T12:23:06.999Z</time></trkpt><trkpt lat="44.919742077095044" lon="9.05891135865384"><ele>381.0</ele><time>2026-04-18T12:23:07.999Z</time></trkpt><trkpt lat="44.919787452492294" lon="9.059006193970177"><ele>381.0</ele><time>2026-04-18T12:23:09.999Z</time></trkpt><trkpt lat="44.91974180909016" lon="9.059133984978928"><ele>381.0</ele><time>2026-04-18T12:23:14.999Z</time></trkpt><trkpt lat="44.919703077380774" lon="9.059293949898894"><ele>381.0</ele><time>2026-04-18T12:23:16.999Z</time></trkpt><trkpt lat="44.91967378639667" lon="9.05937337525058"><ele>381.0</ele><time>2026-04-18T12:23:17.999Z</time></trkpt><trkpt lat="44.91962801593251" lon="9.05943717182232"><ele>382.4</ele><time>2026-04-18T12:23:18.999Z</time></trkpt><trkpt lat="44.91954924184613" lon="9.059555374376153"><ele>383.8</ele><time>2026-04-18T12:23:20.999Z</time></trkpt><trkpt lat="44.9194727553282" lon="9.059676673546385"><ele>385.2</ele><time>2026-04-18T12:23:22.999Z</time></trkpt><trkpt lat="44.9194225669806" lon="9.059784118485677"><ele>386.59999999999997</ele><time>2026-04-18T12:23:24.999Z</time></trkpt><trkpt lat="44.919414707427705" lon="9.05991797773341"><ele>388.0</ele><time>2026-04-18T12:23:26.999Z</time></trkpt><trkpt lat="44.91934805467407" lon="9.059991307636137"><ele>388.00000000000006</ele><time>2026-04-18T12:23:28.999Z</time></trkpt><trkpt lat="44.91926759892213" lon="9.060023738852163"><ele>388.0</ele><time>2026-04-18T12:23:30.999Z</time></trkpt><trkpt lat="44.91918888413069" lon="9.060081248017836"><ele>388.0</ele><time>2026-04-18T12:23:32.999Z</time></trkpt><trkpt lat="44.9191270411869" lon="9.060156700704836"><ele>388.0</ele><time>2026-04-18T12:23:33.999Z</time></trkpt><trkpt lat="44.919057976072544" lon="9.06024959047379"><ele>388.00000000000006</ele><time>2026-04-18T12:23:34.999Z</time></trkpt><trkpt lat="44.91900443977132" lon="9.060348446454872"><ele>388.0</ele><time>2026-04-18T12:23:35.999Z</time></trkpt><trkpt lat="44.91896082148415" lon="9.06043074141151"><ele>388.83333333333337</ele><time>2026-04-18T12:23:39.999Z</time></trkpt><trkpt lat="44.91891896782552" lon="9.060514732971647"><ele>389.6666666666667</ele><time>2026-04-18T12:23:44.999Z</time></trkpt><trkpt lat="44.91887134993538" lon="9.06059727299875"><ele>390.5</ele><time>2026-04-18T12:23:46.999Z</time></trkpt><trkpt lat="44.91883500000746" lon="9.060702131438083"><ele>391.33333333333337</ele><time>2026-04-18T12:23:49.998Z</time></trkpt><trkpt lat="44.918790760884704" lon="9.060832609401468"><ele>392.1666666666667</ele><time>2026-04-18T12:24:00.998Z</time></trkpt><trkpt lat="44.91880833960458" lon="9.060947650582417"><ele>393.0</ele><time>2026-04-18T12:24:01.998Z</time></trkpt><trkpt lat="44.918861496184114" lon="9.061042867166742"><ele>393.0</ele><time>2026-04-18T12:24:02.998Z</time></trkpt><trkpt lat="44.9188954016591" lon="9.061119586973552"><ele>393.0</ele><time>2026-04-18T12:24:03.998Z</time></trkpt><trkpt lat="44.918918880023476" lon="9.061231440918096"><ele>393.0</ele><time>2026-04-18T12:24:04.998Z</time></trkpt><trkpt lat="44.918889997642204" lon="9.061397748102815"><ele>393.0</ele><time>2026-04-18T12:24:06.998Z</time></trkpt><trkpt lat="44.91886784294441" lon="9.061486424649054"><ele>393.0</ele><time>2026-04-18T12:24:07.998Z</time></trkpt><trkpt lat="44.918880980080736" lon="9.061601911311948"><ele>393.0</ele><time>2026-04-18T12:24:08.998Z</time></trkpt><trkpt lat="44.91886854278505" lon="9.06173607353479"><ele>393.79999999999995</ele><time>2026-04-18T12:24:09.998Z</time></trkpt><trkpt lat="44.918881027797035" lon="9.061886067845853"><ele>394.6</ele><time>2026-04-18T12:24:10.998Z</time></trkpt><trkpt lat="44.918868146474914" lon="9.062004389340226"><ele>395.4</ele><time>2026-04-18T12:24:11.998Z</time></trkpt><trkpt lat="44.9189338317121" lon="9.062149679853134"><ele>396.20000000000005</ele><time>2026-04-18T12:24:12.998Z</time></trkpt><trkpt lat="44.91896597590109" lon="9.062270116358736"><ele>397.0</ele><time>2026-04-18T12:24:13.998Z</time></trkpt><trkpt lat="44.9189901240125" lon="9.06236649950315"><ele>397.20000000000005</ele><time>2026-04-18T12:24:14.998Z</time></trkpt><trkpt lat="44.91900649382724" lon="9.062465524123713"><ele>397.4</ele><time>2026-04-18T12:24:15.998Z</time></trkpt><trkpt lat="44.91893778831465" lon="9.06261384723751"><ele>397.6</ele><time>2026-04-18T12:24:16.998Z</time></trkpt><trkpt lat="44.91888645957144" lon="9.062784580293345"><ele>397.79999999999995</ele><time>2026-04-18T12:24:17.998Z</time></trkpt><trkpt lat="44.91883723592988" lon="9.062928651815147"><ele>398.0</ele><time>2026-04-18T12:24:18.998Z</time></trkpt><trkpt lat="44.91878619489657" lon="9.063078159851509"><ele>398.0</ele><time>2026-04-18T12:24:19.998Z</time></trkpt><trkpt lat="44.91889222870741" lon="9.062848260669478"><ele>398.0</ele><time>2026-04-18T12:24:20.998Z</time></trkpt><trkpt lat="44.918802790803596" lon="9.062865941463487"><ele>398.0</ele><time>2026-04-18T12:24:21.998Z</time></trkpt><trkpt lat="44.91871867479576" lon="9.062955224614456"><ele>398.0</ele><time>2026-04-18T12:24:23.998Z</time></trkpt><trkpt lat="44.91865380404967" lon="9.062943531523791"><ele>397.99999999999994</ele><time>2026-04-18T12:24:24.998Z</time></trkpt><trkpt lat="44.918593979747385" lon="9.063007225287437"><ele>398.0</ele><time>2026-04-18T12:24:25.998Z</time></trkpt><trkpt lat="44.91851494920925" lon="9.063051206377573"><ele>398.0</ele><time>2026-04-18T12:24:27.998Z</time></trkpt><trkpt lat="44.9184825188216" lon="9.06317414922529"><ele>398.0</ele><time>2026-04-18T12:24:29.998Z</time></trkpt><trkpt lat="44.91843924319921" lon="9.063278978337234"><ele>397.99999999999994</ele><time>2026-04-18T12:24:30.998Z</time></trkpt><trkpt lat="44.91836880804344" lon="9.06335806731222"><ele>398.0</ele><time>2026-04-18T12:24:31.998Z</time></trkpt><trkpt lat="44.918314968483" lon="9.063433220604141"><ele>402.16666666666663</ele><time>2026-04-18T12:24:32.998Z</time></trkpt><trkpt lat="44.91833745936965" lon="9.063591148222626"><ele>406.3333333333333</ele><time>2026-04-18T12:24:33.998Z</time></trkpt><trkpt lat="44.91832933229565" lon="9.063699038735594"><ele>410.5</ele><time>2026-04-18T12:24:34.998Z</time></trkpt><trkpt lat="44.91834503875195" lon="9.063798915873681"><ele>414.66666666666663</ele><time>2026-04-18T12:24:35.998Z</time></trkpt><trkpt lat="44.91836845065739" lon="9.063916351633363"><ele>418.8333333333333</ele><time>2026-04-18T12:24:36.998Z</time></trkpt><trkpt lat="44.91838329486873" lon="9.064038156952689"><ele>423.0</ele><time>2026-04-18T12:24:37.997Z</time></trkpt><trkpt lat="44.91835600062282" lon="9.064141594927172"><ele>423.0</ele><time>2026-04-18T12:24:38.997Z</time></trkpt><trkpt lat="44.91831716059035" lon="9.064254482172986"><ele>423.0</ele><time>2026-04-18T12:24:39.997Z</time></trkpt><trkpt lat="44.91824586597132" lon="9.06436359292963"><ele>423.0</ele><time>2026-04-18T12:24:41.997Z</time></trkpt><trkpt lat="44.918128468597466" lon="9.06445209949312"><ele>423.0</ele><time>2026-04-18T12:24:43.997Z</time></trkpt><trkpt lat="44.91805309798802" lon="9.064484328096963"><ele>423.0</ele><time>2026-04-18T12:24:44.997Z</time></trkpt><trkpt lat="44.91797803257449" lon="9.064516506772973"><ele>423.0</ele><time>2026-04-18T12:24:45.997Z</time></trkpt><trkpt lat="44.91791372767359" lon="9.064557189017265"><ele>423.0</ele><time>2026-04-18T12:24:46.997Z</time></trkpt><trkpt lat="44.91779009860894" lon="9.064563239394868"><ele>423.0</ele><time>2026-04-18T12:24:48.997Z</time></trkpt><trkpt lat="44.91773087000399" lon="9.064605664865727"><ele>423.0</ele><time>2026-04-18T12:24:50Z</time></trkpt><trkpt lat="44.9176815442958" lon="9.064682636588884"><ele>423.0</ele><time>2026-04-18T12:24:51Z</time></trkpt><trkpt lat="44.91760600599299" lon="9.064759596053419"><ele>423.0</ele><time>2026-04-18T12:24:52Z</time></trkpt><trkpt lat="44.91756740821115" lon="9.064836237458481"><ele>425.1666666666667</ele><time>2026-04-18T12:24:53Z</time></trkpt><trkpt lat="44.91755347662723" lon="9.064942633544609"><ele>427.33333333333337</ele><time>2026-04-18T12:24:54Z</time></trkpt><trkpt lat="44.91757349880732" lon="9.065030947259459"><ele>429.5</ele><time>2026-04-18T12:25:00Z</time></trkpt><trkpt lat="44.91756243214879" lon="9.065184806360513"><ele>431.6666666666667</ele><time>2026-04-18T12:25:02Z</time></trkpt><trkpt lat="44.917535464664475" lon="9.06528093201019"><ele>433.83333333333337</ele><time>2026-04-18T12:25:03Z</time></trkpt><trkpt lat="44.917526694807194" lon="9.065411971068382"><ele>436.0</ele><time>2026-04-18T12:25:04Z</time></trkpt><trkpt lat="44.91752566979176" lon="9.065557642116174"><ele>436.00000000000006</ele><time>2026-04-18T12:25:06Z</time></trkpt><trkpt lat="44.91752607344209" lon="9.065648163569145"><ele>436.0</ele><time>2026-04-18T12:25:07Z</time></trkpt><trkpt lat="44.917521191284145" lon="9.065768669382628"><ele>436.0</ele><time>2026-04-18T12:25:09Z</time></trkpt><trkpt lat="44.917524873377786" lon="9.065954256079982"><ele>436.0</ele><time>2026-04-18T12:25:11Z</time></trkpt><trkpt lat="44.91748065503382" lon="9.066042390899373"><ele>436.00000000000006</ele><time>2026-04-18T12:25:12Z</time></trkpt><trkpt lat="44.91745104510977" lon="9.066131390010487"><ele>436.0</ele><time>2026-04-18T12:25:12.999Z</time></trkpt><trkpt lat="44.91741517759589" lon="9.066230988567689"><ele>435.00000000000006</ele><time>2026-04-18T12:25:14.999Z</time></trkpt><trkpt lat="44.917362750804664" lon="9.066348819945656"><ele>434.0</ele><time>2026-04-18T12:25:16.999Z</time></trkpt><trkpt lat="44.91732418368375" lon="9.066489025153302"><ele>433.0</ele><time>2026-04-18T12:25:18.999Z</time></trkpt><trkpt lat="44.91729626062637" lon="9.066580720744666"><ele>432.0</ele><time>2026-04-18T12:25:19.999Z</time></trkpt><trkpt lat="44.917256377509176" lon="9.066694885963315"><ele>431.00000000000006</ele><time>2026-04-18T12:25:20.999Z</time></trkpt><trkpt lat="44.91721381717056" lon="9.066785079878326"><ele>430.0</ele><time>2026-04-18T12:25:21.999Z</time></trkpt><trkpt lat="44.91717676370171" lon="9.066907289872342"><ele>428.6666666666667</ele><time>2026-04-18T12:25:22.999Z</time></trkpt><trkpt lat="44.91714800407222" lon="9.067016915558394"><ele>427.33333333333337</ele><time>2026-04-18T12:25:23.999Z</time></trkpt><trkpt lat="44.917125848172226" lon="9.06713713741717"><ele>426.0</ele><time>2026-04-18T12:25:24.999Z</time></trkpt><trkpt lat="44.917101720050994" lon="9.067267519271022"><ele>424.66666666666663</ele><time>2026-04-18T12:25:25.999Z</time></trkpt><trkpt lat="44.91709172291096" lon="9.067378095285784"><ele>423.3333333333333</ele><time>2026-04-18T12:25:26.999Z</time></trkpt><trkpt lat="44.91709101303259" lon="9.067502359185976"><ele>422.0</ele><time>2026-04-18T12:25:27.999Z</time></trkpt><trkpt lat="44.91708661612415" lon="9.067672749142298"><ele>418.8</ele><time>2026-04-18T12:25:28.999Z</time></trkpt><trkpt lat="44.917076946796016" lon="9.06781676594511"><ele>415.6</ele><time>2026-04-18T12:25:29.999Z</time></trkpt><trkpt lat="44.91707023094274" lon="9.067951898752899"><ele>412.40000000000003</ele><time>2026-04-18T12:25:30.999Z</time></trkpt><trkpt lat="44.917057636163186" lon="9.068076807354979"><ele>409.20000000000005</ele><time>2026-04-18T12:25:31.999Z</time></trkpt><trkpt lat="44.91705355566887" lon="9.06820639890702"><ele>406.0</ele><time>2026-04-18T12:25:32.999Z</time></trkpt><trkpt lat="44.91706483378688" lon="9.068341777751161"><ele>404.8</ele><time>2026-04-18T12:25:33.999Z</time></trkpt><trkpt lat="44.91708507444504" lon="9.068450329266106"><ele>403.6</ele><time>2026-04-18T12:25:34.999Z</time></trkpt><trkpt lat="44.91704187382583" lon="9.068585117570255"><ele>402.4</ele><time>2026-04-18T12:25:36.999Z</time></trkpt><trkpt lat="44.91687857104713" lon="9.068664789504627"><ele>401.2</ele><time>2026-04-18T12:25:38.999Z</time></trkpt><trkpt lat="44.916798136450474" lon="9.068694496247424"><ele>400.0</ele><time>2026-04-18T12:25:39.999Z</time></trkpt><trkpt lat="44.916715755348456" lon="9.06874559492506"><ele>403.50000000000006</ele><time>2026-04-18T12:25:40.999Z</time></trkpt><trkpt lat="44.91666963955202" lon="9.068841809744544"><ele>407.0</ele><time>2026-04-18T12:25:41.999Z</time></trkpt><trkpt lat="44.91666001032501" lon="9.068939409014662"><ele>410.5</ele><time>2026-04-18T12:25:42.999Z</time></trkpt><trkpt lat="44.91666242217848" lon="9.069054017084957"><ele>414.0</ele><time>2026-04-18T12:25:43.999Z</time></trkpt><trkpt lat="44.916679166071255" lon="9.069173924925543"><ele>417.50000000000006</ele><time>2026-04-18T12:25:44.999Z</time></trkpt><trkpt lat="44.916673339598624" lon="9.069265933070346"><ele>421.0</ele><time>2026-04-18T12:25:45.999Z</time></trkpt><trkpt lat="44.91659758684084" lon="9.069336968355657"><ele>421.0</ele><time>2026-04-18T12:25:47.999Z</time></trkpt><trkpt lat="44.916510273355854" lon="9.069371935676893"><ele>421.0</ele><time>2026-04-18T12:25:49.999Z</time></trkpt><trkpt lat="44.91641084894372" lon="9.069448324042021"><ele>421.0</ele><time>2026-04-18T12:25:51.999Z</time></trkpt><trkpt lat="44.91631879846656" lon="9.069511670064067"><ele>421.0</ele><time>2026-04-18T12:25:53.999Z</time></trkpt><trkpt lat="44.916201625925865" lon="9.06959900298965"><ele>421.0</ele><time>2026-04-18T12:25:55.999Z</time></trkpt><trkpt lat="44.91613499798381" lon="9.06965596281394"><ele>421.0</ele><time>2026-04-18T12:25:56.999Z</time></trkpt><trkpt lat="44.9160790198313" lon="9.069715279598775"><ele>421.0</ele><time>2026-04-18T12:25:57.999Z</time></trkpt><trkpt lat="44.915974713485014" lon="9.06974435159998"><ele>421.0</ele><time>2026-04-18T12:25:59.999Z</time></trkpt><trkpt lat="44.91587829720314" lon="9.069723604106496"><ele>421.0</ele><time>2026-04-18T12:26:01.999Z</time></trkpt><trkpt lat="44.9158203131184" lon="9.069762736173642"><ele>421.0</ele><time>2026-04-18T12:26:02.999Z</time></trkpt><trkpt lat="44.91570722649262" lon="9.069809822620542"><ele>422.0</ele><time>2026-04-18T12:26:04.999Z</time></trkpt><trkpt lat="44.91558878997031" lon="9.069787701767838"><ele>423.0</ele><time>2026-04-18T12:26:06.998Z</time></trkpt><trkpt lat="44.915461677041385" lon="9.069768893851137"><ele>424.0</ele><time>2026-04-18T12:26:08.998Z</time></trkpt><trkpt lat="44.915387998625626" lon="9.069831820595445"><ele>425.0</ele><time>2026-04-18T12:26:10.998Z</time></trkpt><trkpt lat="44.9153520159492" lon="9.069925610334254"><ele>426.0</ele><time>2026-04-18T12:26:12.998Z</time></trkpt><trkpt lat="44.915407326256435" lon="9.070001106228588"><ele>423.3333333333333</ele><time>2026-04-18T12:26:14.998Z</time></trkpt><trkpt lat="44.91547335091388" lon="9.070060812297056"><ele>420.66666666666663</ele><time>2026-04-18T12:26:16.998Z</time></trkpt><trkpt lat="44.91553861202729" lon="9.070190519350477"><ele>418.0</ele><time>2026-04-18T12:26:18.998Z</time></trkpt><trkpt lat="44.915570181337834" lon="9.070275910375477"><ele>415.3333333333333</ele><time>2026-04-18T12:26:19.998Z</time></trkpt><trkpt lat="44.91561264769849" lon="9.070367969581735"><ele>412.66666666666663</ele><time>2026-04-18T12:26:20.998Z</time></trkpt><trkpt lat="44.915662380495185" lon="9.07045426175955"><ele>410.0</ele><time>2026-04-18T12:26:21.998Z</time></trkpt><trkpt lat="44.91569602688899" lon="9.070580229387229"><ele>410.0</ele><time>2026-04-18T12:26:23.998Z</time></trkpt><trkpt lat="44.91562647326639" lon="9.070695842169266"><ele>410.0</ele><time>2026-04-18T12:26:25.998Z</time></trkpt><trkpt lat="44.915571366780796" lon="9.070751752186943"><ele>410.0</ele><time>2026-04-18T12:26:26.998Z</time></trkpt><trkpt lat="44.9155015580188" lon="9.070848727571715"><ele>410.0</ele><time>2026-04-18T12:26:28.998Z</time></trkpt><trkpt lat="44.91551742531488" lon="9.071003337682274"><ele>410.0</ele><time>2026-04-18T12:26:30.998Z</time></trkpt><trkpt lat="44.91554500137382" lon="9.071090584688545"><ele>407.0</ele><time>2026-04-18T12:26:31.998Z</time></trkpt><trkpt lat="44.91563890882732" lon="9.071165526725922"><ele>404.0</ele><time>2026-04-18T12:26:33.998Z</time></trkpt><trkpt lat="44.91579009930614" lon="9.071105173244012"><ele>401.0</ele><time>2026-04-18T12:26:35.998Z</time></trkpt><trkpt lat="44.91587170073607" lon="9.071064767548377"><ele>398.0</ele><time>2026-04-18T12:26:36.998Z</time></trkpt><trkpt lat="44.91595558119572" lon="9.071017823426022"><ele>395.0</ele><time>2026-04-18T12:26:37.998Z</time></trkpt><trkpt lat="44.91604396869588" lon="9.070976948124768"><ele>391.99999999999994</ele><time>2026-04-18T12:26:38.998Z</time></trkpt><trkpt lat="44.9161214269906" lon="9.070938861137268"><ele>389.0</ele><time>2026-04-18T12:26:39.998Z</time></trkpt><trkpt lat="44.916204156558464" lon="9.070942752073387"><ele>386.0</ele><time>2026-04-18T12:26:40.998Z</time></trkpt><trkpt lat="44.91629006854475" lon="9.070969491101465"><ele>383.0</ele><time>2026-04-18T12:26:41.998Z</time></trkpt><trkpt lat="44.916366492370834" lon="9.071002625084624"><ele>380.0</ele><time>2026-04-18T12:26:42.998Z</time></trkpt><trkpt lat="44.91642243740803" lon="9.07104863294044"><ele>377.0</ele><time>2026-04-18T12:26:43.998Z</time></trkpt><trkpt lat="44.91653270230258" lon="9.071110702449923"><ele>377.0</ele><time>2026-04-18T12:26:45.998Z</time></trkpt><trkpt lat="44.91661416260666" lon="9.071139121790377"><ele>377.0</ele><time>2026-04-18T12:26:47.998Z</time></trkpt><trkpt lat="44.916716850344855" lon="9.071186356529912"><ele>377.0</ele><time>2026-04-18T12:26:49.998Z</time></trkpt><trkpt lat="44.91679601757" lon="9.071232535375051"><ele>377.0</ele><time>2026-04-18T12:26:50.998Z</time></trkpt><trkpt lat="44.91686656876023" lon="9.071305676327068"><ele>377.0</ele><time>2026-04-18T12:26:51.998Z</time></trkpt><trkpt lat="44.91690548310738" lon="9.071392460059904"><ele>377.0</ele><time>2026-04-18T12:26:52.998Z</time></trkpt><trkpt lat="44.91693146301716" lon="9.071483861978281"><ele>376.6</ele><time>2026-04-18T12:26:53.998Z</time></trkpt><trkpt lat="44.916976507258276" lon="9.07156170452259"><ele>376.20000000000005</ele><time>2026-04-18T12:26:55Z</time></trkpt><trkpt lat="44.91703657021852" lon="9.071611931485915"><ele>375.8</ele><time>2026-04-18T12:26:56Z</time></trkpt><trkpt lat="44.91711848778089" lon="9.071627519432425"><ele>375.4</ele><time>2026-04-18T12:26:57Z</time></trkpt><trkpt lat="44.917237246950656" lon="9.071628905959095"><ele>375.0</ele><time>2026-04-18T12:26:59Z</time></trkpt><trkpt lat="44.91735545093088" lon="9.071624435859553"><ele>375.0</ele><time>2026-04-18T12:27:01Z</time></trkpt><trkpt lat="44.91747443788303" lon="9.071615764042566"><ele>375.0</ele><time>2026-04-18T12:27:03Z</time></trkpt><trkpt lat="44.917579379364646" lon="9.071641682274352"><ele>375.0</ele><time>2026-04-18T12:27:05Z</time></trkpt><trkpt lat="44.91763660703002" lon="9.071682992913141"><ele>375.0</ele><time>2026-04-18T12:27:06Z</time></trkpt><trkpt lat="44.91772069120495" lon="9.071734280281985"><ele>375.0</ele><time>2026-04-18T12:27:08Z</time></trkpt><trkpt lat="44.91774547592813" lon="9.071832653365451"><ele>375.0</ele><time>2026-04-18T12:27:10Z</time></trkpt><trkpt lat="44.91769327261989" lon="9.071945482602011"><ele>375.0</ele><time>2026-04-18T12:27:12Z</time></trkpt><trkpt lat="44.917591776452916" lon="9.072045088074768"><ele>375.0</ele><time>2026-04-18T12:27:14Z</time></trkpt><trkpt lat="44.9174781696055" lon="9.072129527366855"><ele>375.0</ele><time>2026-04-18T12:27:16Z</time></trkpt><trkpt lat="44.91741573096436" lon="9.07216757971537"><ele>375.0</ele><time>2026-04-18T12:27:17Z</time></trkpt><trkpt lat="44.91731649926173" lon="9.072250355074049"><ele>375.0</ele><time>2026-04-18T12:27:19Z</time></trkpt><trkpt lat="44.9172537010673" lon="9.072403650866057"><ele>375.0</ele><time>2026-04-18T12:27:21Z</time></trkpt><trkpt lat="44.91726854143914" lon="9.072490936429562"><ele>375.0</ele><time>2026-04-18T12:27:22Z</time></trkpt><trkpt lat="44.91735011200859" lon="9.072617476326675"><ele>375.0</ele><time>2026-04-18T12:27:24Z</time></trkpt><trkpt lat="44.917394324130775" lon="9.072706927509266"><ele>375.0</ele><time>2026-04-18T12:27:25Z</time></trkpt><trkpt lat="44.91739128392394" lon="9.072817526052873"><ele>373.4</ele><time>2026-04-18T12:27:26Z</time></trkpt><trkpt lat="44.91736612675716" lon="9.07294478556933"><ele>371.8</ele><time>2026-04-18T12:27:27Z</time></trkpt><trkpt lat="44.91732547272138" lon="9.073078801575859"><ele>370.20000000000005</ele><time>2026-04-18T12:27:28Z</time></trkpt><trkpt lat="44.917281617920416" lon="9.0732148417643"><ele>368.6</ele><time>2026-04-18T12:27:29Z</time></trkpt><trkpt lat="44.91723984701034" lon="9.073364068843704"><ele>367.0</ele><time>2026-04-18T12:27:30Z</time></trkpt><trkpt lat="44.917209278486986" lon="9.073521729593532"><ele>365.20000000000005</ele><time>2026-04-18T12:27:31Z</time></trkpt><trkpt lat="44.91718909101942" lon="9.073646752069061"><ele>363.4</ele><time>2026-04-18T12:27:32Z</time></trkpt><trkpt lat="44.91716417308598" lon="9.073789040157608"><ele>361.6</ele><time>2026-04-18T12:27:33Z</time></trkpt><trkpt lat="44.91712929211939" lon="9.073928644471843"><ele>359.79999999999995</ele><time>2026-04-18T12:27:34Z</time></trkpt><trkpt lat="44.917085638074" lon="9.074057800102729"><ele>358.0</ele><time>2026-04-18T12:27:35Z</time></trkpt><trkpt lat="44.91704249373016" lon="9.074177606458134"><ele>358.59999999999997</ele><time>2026-04-18T12:27:36Z</time></trkpt><trkpt lat="44.91698855162998" lon="9.074280295563346"><ele>359.2</ele><time>2026-04-18T12:27:37Z</time></trkpt><trkpt lat="44.91691191078201" lon="9.074375010475414"><ele>359.8</ele><time>2026-04-18T12:27:38Z</time></trkpt><trkpt lat="44.91681609198157" lon="9.074457516040601"><ele>360.4</ele><time>2026-04-18T12:27:39Z</time></trkpt><trkpt lat="44.91671282033089" lon="9.074552020709262"><ele>361.0</ele><time>2026-04-18T12:27:40Z</time></trkpt><trkpt lat="44.91660409922845" lon="9.074649201996781"><ele>361.0</ele><time>2026-04-18T12:27:40.999Z</time></trkpt><trkpt lat="44.91648944013904" lon="9.074733868810213"><ele>361.0</ele><time>2026-04-18T12:27:41.999Z</time></trkpt><trkpt lat="44.916377638746305" lon="9.074804841956636"><ele>361.0</ele><time>2026-04-18T12:27:42.999Z</time></trkpt><trkpt lat="44.91627452700571" lon="9.074854616525657"><ele>361.0</ele><time>2026-04-18T12:27:43.999Z</time></trkpt><trkpt lat="44.916189939239636" lon="9.074900853539148"><ele>359.0</ele><time>2026-04-18T12:27:44.999Z</time></trkpt><trkpt lat="44.916121300081585" lon="9.074966172074284"><ele>357.0</ele><time>2026-04-18T12:27:45.999Z</time></trkpt><trkpt lat="44.916079277472505" lon="9.075056501146413"><ele>355.0</ele><time>2026-04-18T12:27:46.999Z</time></trkpt><trkpt lat="44.916069251546546" lon="9.07516845265495"><ele>353.0</ele><time>2026-04-18T12:27:47.999Z</time></trkpt><trkpt lat="44.91606659636898" lon="9.075273748494936"><ele>351.0</ele><time>2026-04-18T12:27:48.999Z</time></trkpt><trkpt lat="44.916075068238015" lon="9.075403602379565"><ele>349.0</ele><time>2026-04-18T12:27:50.999Z</time></trkpt><trkpt lat="44.916135073386386" lon="9.075453957176363"><ele>349.0</ele><time>2026-04-18T12:27:52.999Z</time></trkpt><trkpt lat="44.91624200773265" lon="9.075492636631413"><ele>349.0</ele><time>2026-04-18T12:27:54.999Z</time></trkpt><trkpt lat="44.91630796727135" lon="9.075497273942068"><ele>349.0</ele><time>2026-04-18T12:27:55.999Z</time></trkpt><trkpt lat="44.91637978731569" lon="9.075494577736443"><ele>349.0</ele><time>2026-04-18T12:27:56.999Z</time></trkpt><trkpt lat="44.91645724559006" lon="9.075488690803635"><ele>349.0</ele><time>2026-04-18T12:27:57.999Z</time></trkpt><trkpt lat="44.916528969486976" lon="9.075475171644678"><ele>349.0</ele><time>2026-04-18T12:27:58.999Z</time></trkpt><trkpt lat="44.91660628278983" lon="9.07544831046842"><ele>349.0</ele><time>2026-04-18T12:27:59.999Z</time></trkpt><trkpt lat="44.91668102786995" lon="9.07543142410748"><ele>349.0</ele><time>2026-04-18T12:28:00.999Z</time></trkpt><trkpt lat="44.916748456691245" lon="9.075432330753662"><ele>349.0</ele><time>2026-04-18T12:28:01.999Z</time></trkpt><trkpt lat="44.91681462408626" lon="9.075500902355724"><ele>349.0</ele><time>2026-04-18T12:28:03.999Z</time></trkpt><trkpt lat="44.916812169420595" lon="9.075614390966836"><ele>349.0</ele><time>2026-04-18T12:28:05.999Z</time></trkpt><trkpt lat="44.9167269125915" lon="9.075701921487404"><ele>349.0</ele><time>2026-04-18T12:28:07.999Z</time></trkpt><trkpt lat="44.916653805120106" lon="9.075799947365546"><ele>348.5</ele><time>2026-04-18T12:28:09.999Z</time></trkpt><trkpt lat="44.916602521420195" lon="9.075913952077194"><ele>348.0</ele><time>2026-04-18T12:28:11.999Z</time></trkpt><trkpt lat="44.916620892114615" lon="9.076034594520332"><ele>347.5</ele><time>2026-04-18T12:28:13.999Z</time></trkpt><trkpt lat="44.91669255347547" lon="9.07608588865303"><ele>347.0</ele><time>2026-04-18T12:28:15.999Z</time></trkpt><trkpt lat="44.916758933519084" lon="9.076143450500567"><ele>346.5</ele><time>2026-04-18T12:28:40.998Z</time></trkpt><trkpt lat="44.916670542851364" lon="9.076210385034475"><ele>346.0</ele><time>2026-04-18T12:28:43.998Z</time></trkpt><trkpt lat="44.916602665975525" lon="9.076230044952258"><ele>346.0</ele><time>2026-04-18T12:28:46.998Z</time></trkpt><trkpt lat="44.9165284774813" lon="9.076273488497083"><ele>346.0</ele><time>2026-04-18T12:28:48.998Z</time></trkpt><trkpt lat="44.91646598260988" lon="9.076320749559155"><ele>346.0</ele><time>2026-04-18T12:28:49.998Z</time></trkpt><trkpt lat="44.91639293822242" lon="9.076378727017799"><ele>346.0</ele><time>2026-04-18T12:28:50.998Z</time></trkpt><trkpt lat="44.916332114361786" lon="9.076444504730514"><ele>346.0</ele><time>2026-04-18T12:28:51.998Z</time></trkpt><trkpt lat="44.9162684481978" lon="9.076520769557664"><ele>346.0</ele><time>2026-04-18T12:28:52.998Z</time></trkpt><trkpt lat="44.91620962754196" lon="9.076609516072022"><ele>347.0</ele><time>2026-04-18T12:28:53.998Z</time></trkpt><trkpt lat="44.916149691673226" lon="9.076697173320612"><ele>348.0</ele><time>2026-04-18T12:28:54.998Z</time></trkpt><trkpt lat="44.91608879440002" lon="9.076786859193842"><ele>349.0</ele><time>2026-04-18T12:28:55.998Z</time></trkpt><trkpt lat="44.91602737461366" lon="9.076875052425695"><ele>350.0</ele><time>2026-04-18T12:28:56.998Z</time></trkpt><trkpt lat="44.915959911782004" lon="9.076936270347916"><ele>351.0</ele><time>2026-04-18T12:28:57.998Z</time></trkpt><trkpt lat="44.915884939048645" lon="9.076986936401951"><ele>352.0</ele><time>2026-04-18T12:28:58.998Z</time></trkpt><trkpt lat="44.915802274178006" lon="9.077019948219908"><ele>353.16666666666663</ele><time>2026-04-18T12:28:59.998Z</time></trkpt><trkpt lat="44.915715389186005" lon="9.077036280754642"><ele>354.3333333333333</ele><time>2026-04-18T12:29:01Z</time></trkpt><trkpt lat="44.91563271330495" lon="9.077028220430067"><ele>355.5</ele><time>2026-04-18T12:29:02Z</time></trkpt><trkpt lat="44.91555716801897" lon="9.077015941041738"><ele>356.6666666666667</ele><time>2026-04-18T12:29:03Z</time></trkpt><trkpt lat="44.91544871829608" lon="9.077028106424763"><ele>357.83333333333337</ele><time>2026-04-18T12:29:05Z</time></trkpt><trkpt lat="44.915391568937025" lon="9.077102297053663"><ele>359.0</ele><time>2026-04-18T12:29:07Z</time></trkpt><trkpt lat="44.915320636286296" lon="9.077273472351061"><ele>359.0</ele><time>2026-04-18T12:29:09Z</time></trkpt><trkpt lat="44.91529380147358" lon="9.077364540038896"><ele>359.0</ele><time>2026-04-18T12:29:10Z</time></trkpt><trkpt lat="44.9152539988391" lon="9.077504196913987"><ele>359.0</ele><time>2026-04-18T12:29:12Z</time></trkpt><trkpt lat="44.915202814272305" lon="9.077604868672056"><ele>359.0</ele><time>2026-04-18T12:29:14Z</time></trkpt><trkpt lat="44.915157660815176" lon="9.077708950555474"><ele>359.0</ele><time>2026-04-18T12:29:16Z</time></trkpt><trkpt lat="44.91512840509883" lon="9.077793582591243"><ele>359.0</ele><time>2026-04-18T12:29:17Z</time></trkpt><trkpt lat="44.915119071350055" lon="9.077941795796304"><ele>359.1666666666667</ele><time>2026-04-18T12:29:19Z</time></trkpt><trkpt lat="44.915135470119196" lon="9.07805055591359"><ele>359.33333333333337</ele><time>2026-04-18T12:29:20Z</time></trkpt><trkpt lat="44.915139195231106" lon="9.078150099326495"><ele>359.5</ele><time>2026-04-18T12:29:21Z</time></trkpt><trkpt lat="44.91514911319329" lon="9.078255327803165"><ele>359.6666666666667</ele><time>2026-04-18T12:29:22Z</time></trkpt><trkpt lat="44.9151570138206" lon="9.078354353948194"><ele>359.8333333333333</ele><time>2026-04-18T12:29:23Z</time></trkpt><trkpt lat="44.91514705243539" lon="9.078497620052206"><ele>360.0</ele><time>2026-04-18T12:29:25Z</time></trkpt><trkpt lat="44.91510291707299" lon="9.07861421273379"><ele>362.3333333333333</ele><time>2026-04-18T12:29:27Z</time></trkpt><trkpt lat="44.91504192239243" lon="9.078639797318147"><ele>364.6666666666667</ele><time>2026-04-18T12:29:30Z</time></trkpt><trkpt lat="44.91496955703459" lon="9.078641987744513"><ele>367.0</ele><time>2026-04-18T12:29:35Z</time></trkpt><trkpt lat="44.914899775904466" lon="9.078660220868166"><ele>369.33333333333337</ele><time>2026-04-18T12:29:37Z</time></trkpt><trkpt lat="44.914832016354964" lon="9.078666770093667"><ele>371.6666666666667</ele><time>2026-04-18T12:29:39Z</time></trkpt><trkpt lat="44.91474457503228" lon="9.07868373615162"><ele>374.0</ele><time>2026-04-18T12:29:41Z</time></trkpt><trkpt lat="44.9146859901779" lon="9.078787370797707"><ele>374.0</ele><time>2026-04-18T12:29:48Z</time></trkpt><trkpt lat="44.91459592068493" lon="9.078891000379464"><ele>374.0</ele><time>2026-04-18T12:29:49.999Z</time></trkpt><trkpt lat="44.91453483423549" lon="9.078961382913384"><ele>374.0</ele><time>2026-04-18T12:29:51.999Z</time></trkpt><trkpt lat="44.9144515455263" lon="9.079025469635043"><ele>374.0</ele><time>2026-04-18T12:29:53.999Z</time></trkpt><trkpt lat="44.91434679014353" lon="9.079099067771189"><ele>374.0</ele><time>2026-04-18T12:29:55.999Z</time></trkpt><trkpt lat="44.91422670362103" lon="9.079116900569236"><ele>376.0</ele><time>2026-04-18T12:29:57.999Z</time></trkpt><trkpt lat="44.91412063178964" lon="9.079160247641905"><ele>378.0</ele><time>2026-04-18T12:29:59.999Z</time></trkpt><trkpt lat="44.91402307590894" lon="9.079222190525329"><ele>380.0</ele><time>2026-04-18T12:30:01.999Z</time></trkpt><trkpt lat="44.91396627943682" lon="9.079278586990624"><ele>382.0</ele><time>2026-04-18T12:30:03.999Z</time></trkpt><trkpt lat="44.9139385562908" lon="9.079433101904804"><ele>384.0</ele><time>2026-04-18T12:30:06.999Z</time></trkpt><trkpt lat="44.91394463305836" lon="9.079562509315183"><ele>384.0</ele><time>2026-04-18T12:30:08.999Z</time></trkpt><trkpt lat="44.91391728910566" lon="9.07966584391074"><ele>384.0</ele><time>2026-04-18T12:30:10.999Z</time></trkpt><trkpt lat="44.91384638051553" lon="9.079768013114029"><ele>384.0</ele><time>2026-04-18T12:30:12.999Z</time></trkpt><trkpt lat="44.91378961068365" lon="9.07988450755353"><ele>384.0</ele><time>2026-04-18T12:30:14.999Z</time></trkpt><trkpt lat="44.91374763064356" lon="9.07995231719636"><ele>384.0</ele><time>2026-04-18T12:30:17.999Z</time></trkpt><trkpt lat="44.91370290814779" lon="9.080084295094005"><ele>384.0</ele><time>2026-04-18T12:30:20.999Z</time></trkpt><trkpt lat="44.91372901472076" lon="9.08018512493285"><ele>385.2</ele><time>2026-04-18T12:30:23.999Z</time></trkpt><trkpt lat="44.91379259935859" lon="9.080156810521066"><ele>386.4</ele><time>2026-04-18T12:30:25.999Z</time></trkpt><trkpt lat="44.91387903530481" lon="9.080128151749312"><ele>387.6</ele><time>2026-04-18T12:30:27.999Z</time></trkpt><trkpt lat="44.913991642679335" lon="9.080133447457914"><ele>388.8</ele><time>2026-04-18T12:30:29.999Z</time></trkpt><trkpt lat="44.91409306911257" lon="9.080215034712177"><ele>390.0</ele><time>2026-04-18T12:30:31.999Z</time></trkpt><trkpt lat="44.914133137966274" lon="9.080317178771946"><ele>390.0</ele><time>2026-04-18T12:30:33.999Z</time></trkpt><trkpt lat="44.91417404966954" lon="9.080465510405306"><ele>390.0</ele><time>2026-04-18T12:30:35.999Z</time></trkpt><trkpt lat="44.914184207762844" lon="9.080596364478689"><ele>390.0</ele><time>2026-04-18T12:30:37.998Z</time></trkpt><trkpt lat="44.914153350391345" lon="9.080728962361958"><ele>390.0</ele><time>2026-04-18T12:30:39.998Z</time></trkpt><trkpt lat="44.91413810343909" lon="9.080825046436976"><ele>390.0</ele><time>2026-04-18T12:30:40.998Z</time></trkpt><trkpt lat="44.91411372634257" lon="9.080920952009889"><ele>390.0</ele><time>2026-04-18T12:30:41.998Z</time></trkpt><trkpt lat="44.91409284261228" lon="9.081015285744234"><ele>392.1666666666667</ele><time>2026-04-18T12:30:42.998Z</time></trkpt><trkpt lat="44.9140656555974" lon="9.081127935957701"><ele>394.33333333333337</ele><time>2026-04-18T12:30:43.998Z</time></trkpt><trkpt lat="44.91403979515428" lon="9.08121483944103"><ele>396.5</ele><time>2026-04-18T12:30:44.998Z</time></trkpt><trkpt lat="44.913984699495415" lon="9.081324004452641"><ele>398.6666666666667</ele><time>2026-04-18T12:30:46.998Z</time></trkpt><trkpt lat="44.913955615509444" lon="9.081413191408958"><ele>400.83333333333337</ele><time>2026-04-18T12:30:47.998Z</time></trkpt><trkpt lat="44.9139149312888" lon="9.081497176875319"><ele>403.0</ele><time>2026-04-18T12:30:48.998Z</time></trkpt><trkpt lat="44.91387971660145" lon="9.081593958212794"><ele>404.83333333333337</ele><time>2026-04-18T12:30:50.998Z</time></trkpt><trkpt lat="44.91384468749413" lon="9.081680315196156"><ele>406.6666666666667</ele><time>2026-04-18T12:30:54.998Z</time></trkpt><trkpt lat="44.913807905678624" lon="9.081797476814383"><ele>408.5</ele><time>2026-04-18T12:30:56.998Z</time></trkpt><trkpt lat="44.91376743244337" lon="9.081870404461023"><ele>410.33333333333337</ele><time>2026-04-18T12:30:58.998Z</time></trkpt><trkpt lat="44.913713376224706" lon="9.081968919678204"><ele>412.1666666666667</ele><time>2026-04-18T12:31:01.998Z</time></trkpt><trkpt lat="44.91363438601324" lon="9.082031537598928"><ele>414.0</ele><time>2026-04-18T12:31:04.998Z</time></trkpt><trkpt lat="44.91357864661405" lon="9.082087024522883"><ele>414.0</ele><time>2026-04-18T12:31:07Z</time></trkpt><trkpt lat="44.91352939266618" lon="9.082161340223726"><ele>414.0</ele><time>2026-04-18T12:31:09Z</time></trkpt><trkpt lat="44.91346947580812" lon="9.08226396262126"><ele>414.0</ele><time>2026-04-18T12:31:11Z</time></trkpt><trkpt lat="44.91336778932026" lon="9.082360180704583"><ele>414.0</ele><time>2026-04-18T12:31:13Z</time></trkpt><trkpt lat="44.91328370651495" lon="9.082409621175245"><ele>414.0</ele><time>2026-04-18T12:31:15Z</time></trkpt><trkpt lat="44.91321384384111" lon="9.08250957536702"><ele>418.8333333333333</ele><time>2026-04-18T12:31:17Z</time></trkpt><trkpt lat="44.91316639382181" lon="9.082579836617978"><ele>423.66666666666663</ele><time>2026-04-18T12:31:18Z</time></trkpt><trkpt lat="44.91310756333861" lon="9.08266417088483"><ele>428.5</ele><time>2026-04-18T12:31:20Z</time></trkpt><trkpt lat="44.91308089932506" lon="9.082779953247833"><ele>433.3333333333333</ele><time>2026-04-18T12:31:29Z</time></trkpt><trkpt lat="44.91300375385258" lon="9.082844974899887"><ele>438.16666666666663</ele><time>2026-04-18T12:31:33Z</time></trkpt><trkpt lat="44.912934608850016" lon="9.08293419728275"><ele>443.0</ele><time>2026-04-18T12:31:35Z</time></trkpt><trkpt lat="44.912853901011296" lon="9.083021130544997"><ele>443.0</ele><time>2026-04-18T12:31:37Z</time></trkpt><trkpt lat="44.91278590402453" lon="9.083101195312404"><ele>442.99999999999994</ele><time>2026-04-18T12:31:40Z</time></trkpt><trkpt lat="44.91273268048933" lon="9.08323705718605"><ele>442.99999999999994</ele><time>2026-04-18T12:31:42Z</time></trkpt><trkpt lat="44.91272424668127" lon="9.083355066422406"><ele>443.0</ele><time>2026-04-18T12:31:44Z</time></trkpt><trkpt lat="44.91273474736538" lon="9.083482231316202"><ele>443.0</ele><time>2026-04-18T12:31:46Z</time></trkpt><trkpt lat="44.91277282767806" lon="9.083577470923176"><ele>445.3333333333333</ele><time>2026-04-18T12:31:47Z</time></trkpt><trkpt lat="44.91283989673026" lon="9.083655064395213"><ele>447.66666666666663</ele><time>2026-04-18T12:31:49Z</time></trkpt><trkpt lat="44.91284602761793" lon="9.083768409689759"><ele>450.0</ele><time>2026-04-18T12:31:51Z</time></trkpt><trkpt lat="44.91280782936447" lon="9.083863266261972"><ele>452.33333333333337</ele><time>2026-04-18T12:31:55.999Z</time></trkpt><trkpt lat="44.91274112718523" lon="9.08389351175371"><ele>454.6666666666667</ele><time>2026-04-18T12:31:57.999Z</time></trkpt><trkpt lat="44.91267031858111" lon="9.083849258642914"><ele>457.0</ele><time>2026-04-18T12:31:59.999Z</time></trkpt><trkpt lat="44.912601661828994" lon="9.083802257048683"><ele>460.20000000000005</ele><time>2026-04-18T12:32:01.999Z</time></trkpt><trkpt lat="44.91254210756028" lon="9.083749173296017"><ele>463.40000000000003</ele><time>2026-04-18T12:32:04.999Z</time></trkpt><trkpt lat="44.91245523616478" lon="9.083720799399545"><ele>466.59999999999997</ele><time>2026-04-18T12:32:09.999Z</time></trkpt><trkpt lat="44.912357164195285" lon="9.083731309684326"><ele>469.79999999999995</ele><time>2026-04-18T12:32:11.999Z</time></trkpt><trkpt lat="44.912268019646255" lon="9.08374942944222"><ele>473.0</ele><time>2026-04-18T12:32:13.999Z</time></trkpt><trkpt lat="44.912198198048905" lon="9.083895133254774"><ele>473.0</ele><time>2026-04-18T12:32:15.999Z</time></trkpt><trkpt lat="44.91217382264482" lon="9.083995839735694"><ele>472.99999999999994</ele><time>2026-04-18T12:32:16.999Z</time></trkpt><trkpt lat="44.912126094414084" lon="9.08408893985835"><ele>472.99999999999994</ele><time>2026-04-18T12:32:17.999Z</time></trkpt><trkpt lat="44.91208076512793" lon="9.084231100768234"><ele>473.0</ele><time>2026-04-18T12:32:18.999Z</time></trkpt><trkpt lat="44.912037751422005" lon="9.08437507559075"><ele>473.0</ele><time>2026-04-18T12:32:19.999Z</time></trkpt><trkpt lat="44.91198392417957" lon="9.08450424120555"><ele>475.66666666666663</ele><time>2026-04-18T12:32:20.999Z</time></trkpt><trkpt lat="44.91192337326199" lon="9.084648638740019"><ele>478.3333333333333</ele><time>2026-04-18T12:32:22.999Z</time></trkpt><trkpt lat="44.9118932531705" lon="9.084735963964956"><ele>481.0</ele><time>2026-04-18T12:32:23.999Z</time></trkpt><trkpt lat="44.911870716059894" lon="9.084834865891786"><ele>483.66666666666663</ele><time>2026-04-18T12:32:24.999Z</time></trkpt><trkpt lat="44.9118420548201" lon="9.084953041177442"><ele>486.3333333333333</ele><time>2026-04-18T12:32:25.999Z</time></trkpt><trkpt lat="44.911813027290115" lon="9.085057237087014"><ele>489.0</ele><time>2026-04-18T12:32:26.999Z</time></trkpt><trkpt lat="44.91175939117363" lon="9.08519489516581"><ele>493.5</ele><time>2026-04-18T12:32:28.999Z</time></trkpt><trkpt lat="44.91173227314517" lon="9.085357239858546"><ele>498.0</ele><time>2026-04-18T12:32:30.999Z</time></trkpt><trkpt lat="44.91169167002636" lon="9.085456977727286"><ele>502.5</ele><time>2026-04-18T12:32:32.999Z</time></trkpt><trkpt lat="44.91164930554858" lon="9.085534454627783"><ele>507.0</ele><time>2026-04-18T12:32:33.999Z</time></trkpt><trkpt lat="44.911586347637" lon="9.085609120855821"><ele>511.5</ele><time>2026-04-18T12:32:34.999Z</time></trkpt><trkpt lat="44.91154738232398" lon="9.085685367543071"><ele>516.0</ele><time>2026-04-18T12:32:35.999Z</time></trkpt><trkpt lat="44.9115022201514" lon="9.085777839254892"><ele>518.0</ele><time>2026-04-18T12:32:36.999Z</time></trkpt><trkpt lat="44.911472127245666" lon="9.085863685891885"><ele>520.0</ele><time>2026-04-18T12:32:37.999Z</time></trkpt><trkpt lat="44.91144391357616" lon="9.08595102137446"><ele>522.0</ele><time>2026-04-18T12:32:38.999Z</time></trkpt><trkpt lat="44.91143009132764" lon="9.086063924728899"><ele>524.0</ele><time>2026-04-18T12:32:41.998Z</time></trkpt><trkpt lat="44.91139178137865" lon="9.08616961833282"><ele>526.0</ele><time>2026-04-18T12:32:43.998Z</time></trkpt><trkpt lat="44.91138590306605" lon="9.086274655162848"><ele>528.0</ele><time>2026-04-18T12:32:45.998Z</time></trkpt><trkpt lat="44.91140079662682" lon="9.086401857050198"><ele>528.0</ele><time>2026-04-18T12:32:48.998Z</time></trkpt><trkpt lat="44.911407757070464" lon="9.08649141222728"><ele>528.0</ele><time>2026-04-18T12:32:49.998Z</time></trkpt><trkpt lat="44.91139014803602" lon="9.086623782831321"><ele>528.0</ele><time>2026-04-18T12:32:51.998Z</time></trkpt><trkpt lat="44.91136522220133" lon="9.086777406138932"><ele>528.0</ele><time>2026-04-18T12:32:53.998Z</time></trkpt><trkpt lat="44.91135109429435" lon="9.086878556822045"><ele>528.0</ele><time>2026-04-18T12:32:55.998Z</time></trkpt><trkpt lat="44.91126998648173" lon="9.086963743422398"><ele>528.0</ele><time>2026-04-18T12:32:58.998Z</time></trkpt><trkpt lat="44.911217957939535" lon="9.087017613209657"><ele>529.8333333333334</ele><time>2026-04-18T12:33:00.998Z</time></trkpt><trkpt lat="44.91123524924231" lon="9.08715204560309"><ele>531.6666666666666</ele><time>2026-04-18T12:33:02.998Z</time></trkpt><trkpt lat="44.91126184847637" lon="9.087241230567127"><ele>533.5</ele><time>2026-04-18T12:33:03.998Z</time></trkpt><trkpt lat="44.911306965350825" lon="9.087323281681467"><ele>535.3333333333333</ele><time>2026-04-18T12:33:05.998Z</time></trkpt><trkpt lat="44.911335063336224" lon="9.087430751828979"><ele>537.1666666666666</ele><time>2026-04-18T12:33:07.998Z</time></trkpt><trkpt lat="44.911344772413635" lon="9.087541440597063"><ele>539.0</ele><time>2026-04-18T12:33:10.998Z</time></trkpt><trkpt lat="44.91131698281128" lon="9.087630548587759"><ele>540.2</ele><time>2026-04-18T12:33:15Z</time></trkpt><trkpt lat="44.91127130817611" lon="9.087759886803747"><ele>541.4</ele><time>2026-04-18T12:33:17.001Z</time></trkpt><trkpt lat="44.911206361762495" lon="9.087904478501642"><ele>542.6</ele><time>2026-04-18T12:33:19.001Z</time></trkpt><trkpt lat="44.91113269657906" lon="9.088010451101816"><ele>543.8</ele><time>2026-04-18T12:33:21Z</time></trkpt><trkpt lat="44.91108171168596" lon="9.088095739985175"><ele>545.0</ele><time>2026-04-18T12:33:22Z</time></trkpt><trkpt lat="44.911015458260714" lon="9.088166939559711"><ele>545.0</ele><time>2026-04-18T12:33:23.001Z</time></trkpt><trkpt lat="44.91094866615827" lon="9.088189959758912"><ele>545.0</ele><time>2026-04-18T12:33:24Z</time></trkpt><trkpt lat="44.91090291226299" lon="9.088342078907745"><ele>545.0</ele><time>2026-04-18T12:33:26Z</time></trkpt><trkpt lat="44.910809933619966" lon="9.088355426108997"><ele>545.0</ele><time>2026-04-18T12:33:28Z</time></trkpt><trkpt lat="44.91070540047209" lon="9.088371176395656"><ele>545.0</ele><time>2026-04-18T12:33:31Z</time></trkpt><trkpt lat="44.9106404168255" lon="9.088381117411279"><ele>545.6666666666666</ele><time>2026-04-18T12:33:32Z</time></trkpt><trkpt lat="44.91056367649391" lon="9.088415187708543"><ele>546.3333333333333</ele><time>2026-04-18T12:33:33Z</time></trkpt><trkpt lat="44.910498719055504" lon="9.08845102569014"><ele>547.0</ele><time>2026-04-18T12:33:34Z</time></trkpt><trkpt lat="44.91039908288696" lon="9.088519971034515"><ele>547.6666666666666</ele><time>2026-04-18T12:33:36Z</time></trkpt><trkpt lat="44.9103435477641" lon="9.088585242420097"><ele>548.3333333333334</ele><time>2026-04-18T12:33:38Z</time></trkpt><trkpt lat="44.910305948338035" lon="9.088660263755195"><ele>549.0</ele><time>2026-04-18T12:33:40Z</time></trkpt><trkpt lat="44.910333195486864" lon="9.088751986291712"><ele>549.0</ele><time>2026-04-18T12:33:42Z</time></trkpt><trkpt lat="44.91036712484677" lon="9.088837374592844"><ele>549.0</ele><time>2026-04-18T12:34:10.999Z</time></trkpt><trkpt lat="44.910406038294155" lon="9.089003000715925"><ele>549.0</ele><time>2026-04-18T12:34:12.999Z</time></trkpt><trkpt lat="44.91043710314438" lon="9.089093119924271"><ele>549.0</ele><time>2026-04-18T12:34:13.999Z</time></trkpt><trkpt lat="44.910476498195536" lon="9.089164990839356"><ele>549.0</ele><time>2026-04-18T12:34:14.999Z</time></trkpt><trkpt lat="44.910529002274565" lon="9.089243123165454"><ele>549.0</ele><time>2026-04-18T12:34:15.999Z</time></trkpt><trkpt lat="44.91057912859923" lon="9.089332771886875"><ele>548.1666666666666</ele><time>2026-04-18T12:34:16.999Z</time></trkpt><trkpt lat="44.91061757111139" lon="9.089434682348065"><ele>547.3333333333334</ele><time>2026-04-18T12:34:17.999Z</time></trkpt><trkpt lat="44.91065478211058" lon="9.089544715514176"><ele>546.5</ele><time>2026-04-18T12:34:18.999Z</time></trkpt><trkpt lat="44.910698912903484" lon="9.089656560550763"><ele>545.6666666666667</ele><time>2026-04-18T12:34:19.999Z</time></trkpt><trkpt lat="44.91074885317032" lon="9.089766959954892"><ele>544.8333333333334</ele><time>2026-04-18T12:34:20.999Z</time></trkpt><trkpt lat="44.91079516447481" lon="9.089862890433478"><ele>544.0</ele><time>2026-04-18T12:34:21.999Z</time></trkpt><trkpt lat="44.910843659102234" lon="9.08996170779067"><ele>544.0</ele><time>2026-04-18T12:34:22.999Z</time></trkpt><trkpt lat="44.910902509694466" lon="9.090075270621588"><ele>544.0</ele><time>2026-04-18T12:34:23.999Z</time></trkpt><trkpt lat="44.91096551053145" lon="9.09019314418917"><ele>544.0</ele><time>2026-04-18T12:34:24.999Z</time></trkpt><trkpt lat="44.91103202238065" lon="9.090323752469832"><ele>544.0</ele><time>2026-04-18T12:34:25.999Z</time></trkpt><trkpt lat="44.911108716828174" lon="9.09045823867234"><ele>544.0</ele><time>2026-04-18T12:34:26.999Z</time></trkpt><trkpt lat="44.911187547116015" lon="9.090592825336364"><ele>543.0</ele><time>2026-04-18T12:34:27.999Z</time></trkpt><trkpt lat="44.911260113710895" lon="9.09073051280311"><ele>542.0</ele><time>2026-04-18T12:34:28.999Z</time></trkpt><trkpt lat="44.911330260298016" lon="9.090865190108989"><ele>541.0</ele><time>2026-04-18T12:34:29.999Z</time></trkpt><trkpt lat="44.91139871681701" lon="9.090995419800151"><ele>540.0</ele><time>2026-04-18T12:34:30.999Z</time></trkpt><trkpt lat="44.911458617054684" lon="9.091129143508503"><ele>540.0</ele><time>2026-04-18T12:34:31.999Z</time></trkpt><trkpt lat="44.91150919370696" lon="9.09126291002345"><ele>540.0</ele><time>2026-04-18T12:34:32.999Z</time></trkpt><trkpt lat="44.91155193649649" lon="9.09138969829113"><ele>540.0</ele><time>2026-04-18T12:34:33.999Z</time></trkpt><trkpt lat="44.91159393486951" lon="9.091493558607851"><ele>540.0</ele><time>2026-04-18T12:34:34.999Z</time></trkpt><trkpt lat="44.91163265262874" lon="9.09158463884387"><ele>540.0</ele><time>2026-04-18T12:34:35.999Z</time></trkpt><trkpt lat="44.91168265601309" lon="9.09168347453448"><ele>542.0</ele><time>2026-04-18T12:34:36.999Z</time></trkpt><trkpt lat="44.911734588706956" lon="9.091797442008803"><ele>544.0</ele><time>2026-04-18T12:34:37.999Z</time></trkpt><trkpt lat="44.91176994916656" lon="9.091930724096342"><ele>546.0</ele><time>2026-04-18T12:34:38.999Z</time></trkpt><trkpt lat="44.911777161687354" lon="9.092019894002231"><ele>548.0</ele><time>2026-04-18T12:34:39.999Z</time></trkpt><trkpt lat="44.91184249219487" lon="9.092121588087434"><ele>550.0</ele><time>2026-04-18T12:34:41.999Z</time></trkpt><trkpt lat="44.91192510900109" lon="9.092139310160528"><ele>552.0</ele><time>2026-04-18T12:34:43.999Z</time></trkpt><trkpt lat="44.91197502762095" lon="9.092247897424164"><ele>552.3333333333334</ele><time>2026-04-18T12:34:46.999Z</time></trkpt><trkpt lat="44.91202753222356" lon="9.092306553629992"><ele>552.6666666666666</ele><time>2026-04-18T12:34:48.999Z</time></trkpt><trkpt lat="44.912102806732015" lon="9.092297092854634"><ele>553.0</ele><time>2026-04-18T12:34:50.998Z</time></trkpt><trkpt lat="44.91222135781054" lon="9.092311456400836"><ele>553.3333333333333</ele><time>2026-04-18T12:34:52.998Z</time></trkpt><trkpt lat="44.91230119208778" lon="9.092392374513386"><ele>553.6666666666666</ele><time>2026-04-18T12:34:53.998Z</time></trkpt><trkpt lat="44.91235148018878" lon="9.092475043552723"><ele>554.0</ele><time>2026-04-18T12:34:54.998Z</time></trkpt><trkpt lat="44.9123785770899" lon="9.09255766366831"><ele>554.1666666666666</ele><time>2026-04-18T12:34:55.998Z</time></trkpt><trkpt lat="44.912383386008145" lon="9.09267595890042"><ele>554.3333333333333</ele><time>2026-04-18T12:34:58.998Z</time></trkpt><trkpt lat="44.912400040842364" lon="9.092788912031722"><ele>554.5</ele><time>2026-04-18T12:35:02.998Z</time></trkpt><trkpt lat="44.91242443521114" lon="9.092884799755616"><ele>554.6666666666666</ele><time>2026-04-18T12:35:05.998Z</time></trkpt><trkpt lat="44.912474332982825" lon="9.092980265313878"><ele>554.8333333333334</ele><time>2026-04-18T12:35:08.998Z</time></trkpt><trkpt lat="44.91253163736639" lon="9.093059268556397"><ele>555.0</ele><time>2026-04-18T12:35:11.998Z</time></trkpt><trkpt lat="44.91257474355163" lon="9.09312600474601"><ele>555.0</ele><time>2026-04-18T12:35:13.998Z</time></trkpt><trkpt lat="44.91261669094781" lon="9.093196980664766"><ele>555.0</ele><time>2026-04-18T12:35:15.998Z</time></trkpt><trkpt lat="44.912663342341375" lon="9.093304668431237"><ele>555.0</ele><time>2026-04-18T12:35:19.001Z</time></trkpt><trkpt lat="44.91271850611185" lon="9.093392331811637"><ele>555.0</ele><time>2026-04-18T12:35:22.001Z</time></trkpt><trkpt lat="44.91277803476168" lon="9.093476842694724"><ele>555.0</ele><time>2026-04-18T12:35:25.001Z</time></trkpt><trkpt lat="44.912848345643106" lon="9.09352563947513"><ele>555.0</ele><time>2026-04-18T12:35:28.001Z</time></trkpt><trkpt lat="44.912915376983605" lon="9.093561554101273"><ele>556.3333333333334</ele><time>2026-04-18T12:35:31.001Z</time></trkpt><trkpt lat="44.91298896944095" lon="9.09358644283931"><ele>557.6666666666666</ele><time>2026-04-18T12:35:34.001Z</time></trkpt><trkpt lat="44.91307825948506" lon="9.093623981293359"><ele>559.0</ele><time>2026-04-18T12:35:37.001Z</time></trkpt><trkpt lat="44.913152734539544" lon="9.093708709839184"><ele>560.3333333333333</ele><time>2026-04-18T12:35:40.001Z</time></trkpt><trkpt lat="44.91320303001899" lon="9.093781235376275"><ele>561.6666666666666</ele><time>2026-04-18T12:35:42Z</time></trkpt><trkpt lat="44.913242499206135" lon="9.093873903445678"><ele>563.0</ele><time>2026-04-18T12:35:44Z</time></trkpt><trkpt lat="44.9132884144767" lon="9.093956392909632"><ele>563.0</ele><time>2026-04-18T12:35:46Z</time></trkpt><trkpt lat="44.91333022197919" lon="9.094026434133989"><ele>563.0</ele><time>2026-04-18T12:35:48Z</time></trkpt><trkpt lat="44.91337816934934" lon="9.094104807788616"><ele>563.0</ele><time>2026-04-18T12:35:50Z</time></trkpt><trkpt lat="44.913434623354746" lon="9.094203304061898"><ele>563.0</ele><time>2026-04-18T12:35:52Z</time></trkpt><trkpt lat="44.91350062607623" lon="9.094267425142325"><ele>563.0</ele><time>2026-04-18T12:35:55Z</time></trkpt><trkpt lat="44.913558655641296" lon="9.094376812152278"><ele>563.0</ele><time>2026-04-18T12:35:58Z</time></trkpt><trkpt lat="44.913639826351535" lon="9.094475724886529"><ele>563.1999999999999</ele><time>2026-04-18T12:36:00Z</time></trkpt><trkpt lat="44.91369613103807" lon="9.094572573668232"><ele>563.4</ele><time>2026-04-18T12:36:02Z</time></trkpt><trkpt lat="44.91376242431579" lon="9.09468659495464"><ele>563.5999999999999</ele><time>2026-04-18T12:36:04Z</time></trkpt><trkpt lat="44.91382020249274" lon="9.09473863931545"><ele>563.8</ele><time>2026-04-18T12:36:05Z</time></trkpt><trkpt lat="44.91387607228572" lon="9.094796984683311"><ele>564.0</ele><time>2026-04-18T12:36:06Z</time></trkpt><trkpt lat="44.914003974875484" lon="9.094928274417416"><ele>564.6</ele><time>2026-04-18T12:36:08Z</time></trkpt><trkpt lat="44.91406294402582" lon="9.094962821379188"><ele>565.2</ele><time>2026-04-18T12:36:09Z</time></trkpt><trkpt lat="44.91416623933655" lon="9.095026681695405"><ele>565.8000000000001</ele><time>2026-04-18T12:36:11Z</time></trkpt><trkpt lat="44.91424598373234" lon="9.095089768359104"><ele>566.4</ele><time>2026-04-18T12:36:12Z</time></trkpt><trkpt lat="44.91430987010904" lon="9.095138953189226"><ele>567.0</ele><time>2026-04-18T12:36:13Z</time></trkpt><trkpt lat="44.91445486826104" lon="9.095218118420037"><ele>567.3333333333334</ele><time>2026-04-18T12:36:15Z</time></trkpt><trkpt lat="44.91451437103754" lon="9.095266410817292"><ele>567.6666666666666</ele><time>2026-04-18T12:36:16Z</time></trkpt><trkpt lat="44.914574811230004" lon="9.095298485894006"><ele>568.0</ele><time>2026-04-18T12:36:17Z</time></trkpt><trkpt lat="44.9146739253468" lon="9.095348487477104"><ele>568.3333333333333</ele><time>2026-04-18T12:36:19Z</time></trkpt><trkpt lat="44.91472488753338" lon="9.09540842742686"><ele>568.6666666666666</ele><time>2026-04-18T12:36:20.999Z</time></trkpt><trkpt lat="44.91480153964451" lon="9.095481913521278"><ele>569.0</ele><time>2026-04-18T12:36:23.999Z</time></trkpt><trkpt lat="44.9148990848244" lon="9.09553756783056"><ele>569.0</ele><time>2026-04-18T12:36:25.999Z</time></trkpt><trkpt lat="44.915017627713716" lon="9.095522094628768"><ele>569.0</ele><time>2026-04-18T12:36:27.999Z</time></trkpt><trkpt lat="44.91513568940597" lon="9.095572643347825"><ele>569.0</ele><time>2026-04-18T12:36:29.999Z</time></trkpt><trkpt lat="44.915250887995285" lon="9.095648136820454"><ele>569.0</ele><time>2026-04-18T12:36:31.999Z</time></trkpt><trkpt lat="44.91530842491082" lon="9.095685807335476"><ele>569.0</ele><time>2026-04-18T12:36:32.999Z</time></trkpt><trkpt lat="44.91537077778159" lon="9.095724074953136"><ele>567.8</ele><time>2026-04-18T12:36:33.999Z</time></trkpt><trkpt lat="44.9154418906272" lon="9.095776361853266"><ele>566.5999999999999</ele><time>2026-04-18T12:36:34.999Z</time></trkpt><trkpt lat="44.91551426771637" lon="9.095823906569063"><ele>565.4</ele><time>2026-04-18T12:36:35.999Z</time></trkpt><trkpt lat="44.91562059469374" lon="9.09594513495679"><ele>564.1999999999999</ele><time>2026-04-18T12:36:37.999Z</time></trkpt><trkpt lat="44.91570668897164" lon="9.096085151672495"><ele>563.0</ele><time>2026-04-18T12:36:39.999Z</time></trkpt><trkpt lat="44.91580211688081" lon="9.096219211740175"><ele>563.0</ele><time>2026-04-18T12:36:41.999Z</time></trkpt><trkpt lat="44.91584950844922" lon="9.096286883995115"><ele>563.0</ele><time>2026-04-18T12:36:42.999Z</time></trkpt><trkpt lat="44.915937989446604" lon="9.096401107435751"><ele>563.0</ele><time>2026-04-18T12:36:44.999Z</time></trkpt><trkpt lat="44.91600047015874" lon="9.09643318410938"><ele>563.0</ele><time>2026-04-18T12:36:45.999Z</time></trkpt><trkpt lat="44.91605873830616" lon="9.09649391583773"><ele>563.0</ele><time>2026-04-18T12:36:46.999Z</time></trkpt><trkpt lat="44.91613023226444" lon="9.096533651955994"><ele>563.0</ele><time>2026-04-18T12:36:47.999Z</time></trkpt><trkpt lat="44.91621010243536" lon="9.096570383291787"><ele>561.5</ele><time>2026-04-18T12:36:48.999Z</time></trkpt><trkpt lat="44.91629163154446" lon="9.09660367735952"><ele>560.0</ele><time>2026-04-18T12:36:49.999Z</time></trkpt><trkpt lat="44.916360392528084" lon="9.096631757322669"><ele>558.5</ele><time>2026-04-18T12:36:50.999Z</time></trkpt><trkpt lat="44.916425786891196" lon="9.096650173458157"><ele>557.0</ele><time>2026-04-18T12:36:51.999Z</time></trkpt><trkpt lat="44.916499982397674" lon="9.096655394027257"><ele>555.5</ele><time>2026-04-18T12:36:52.999Z</time></trkpt><trkpt lat="44.91658793690493" lon="9.096646187379555"><ele>554.0</ele><time>2026-04-18T12:36:53.999Z</time></trkpt><trkpt lat="44.91666505018335" lon="9.09667289069469"><ele>554.3333333333333</ele><time>2026-04-18T12:36:54.999Z</time></trkpt><trkpt lat="44.91675650589349" lon="9.096679794623917"><ele>554.6666666666666</ele><time>2026-04-18T12:36:55.999Z</time></trkpt><trkpt lat="44.91685397373265" lon="9.096660484724552"><ele>555.0</ele><time>2026-04-18T12:36:56.999Z</time></trkpt><trkpt lat="44.91693666131114" lon="9.096663795431338"><ele>555.3333333333334</ele><time>2026-04-18T12:36:57.999Z</time></trkpt><trkpt lat="44.9170122817563" lon="9.096682050582102"><ele>555.6666666666667</ele><time>2026-04-18T12:36:58.999Z</time></trkpt><trkpt lat="44.91709266451552" lon="9.096706222779277"><ele>556.0</ele><time>2026-04-18T12:36:59.999Z</time></trkpt><trkpt lat="44.917171552423234" lon="9.096721265901262"><ele>556.0</ele><time>2026-04-18T12:37:00.999Z</time></trkpt><trkpt lat="44.91723801327926" lon="9.096731083744478"><ele>556.0</ele><time>2026-04-18T12:37:01.999Z</time></trkpt><trkpt lat="44.91730110415758" lon="9.096760845163741"><ele>556.0</ele><time>2026-04-18T12:37:02.999Z</time></trkpt><trkpt lat="44.91735752067294" lon="9.09682413585423"><ele>556.0</ele><time>2026-04-18T12:37:03.998Z</time></trkpt><trkpt lat="44.917458498012316" lon="9.096905561721924"><ele>556.0</ele><time>2026-04-18T12:37:05.998Z</time></trkpt><trkpt lat="44.91752730969171" lon="9.096990204694851"><ele>556.0</ele><time>2026-04-18T12:37:07.998Z</time></trkpt><trkpt lat="44.91757017524604" lon="9.097058905845628"><ele>556.0</ele><time>2026-04-18T12:37:09.998Z</time></trkpt><trkpt lat="44.917654418212685" lon="9.097023704319103"><ele>556.0</ele><time>2026-04-18T12:37:11.998Z</time></trkpt><trkpt lat="44.91768794378607" lon="9.096939756666451"><ele>556.0</ele><time>2026-04-18T12:37:12.998Z</time></trkpt><trkpt lat="44.917726683114644" lon="9.096842753886682"><ele>556.0</ele><time>2026-04-18T12:37:13.998Z</time></trkpt><trkpt lat="44.91776337858468" lon="9.09674310046156"><ele>556.0</ele><time>2026-04-18T12:37:14.998Z</time></trkpt><trkpt lat="44.917799070067694" lon="9.096643562551828"><ele>556.0</ele><time>2026-04-18T12:37:15.998Z</time></trkpt><trkpt lat="44.917831453577776" lon="9.09653864614717"><ele>553.0</ele><time>2026-04-18T12:37:16.998Z</time></trkpt><trkpt lat="44.91784760798523" lon="9.096436680061048"><ele>550.0</ele><time>2026-04-18T12:37:17.998Z</time></trkpt><trkpt lat="44.91783854007001" lon="9.096321339440209"><ele>547.0</ele><time>2026-04-18T12:37:18.998Z</time></trkpt><trkpt lat="44.91780754817825" lon="9.096213915762132"><ele>544.0</ele><time>2026-04-18T12:37:19.998Z</time></trkpt><trkpt lat="44.9177494760461" lon="9.096099000274563"><ele>541.0</ele><time>2026-04-18T12:37:20.998Z</time></trkpt><trkpt lat="44.91767035453923" lon="9.096034474747249"><ele>538.0</ele><time>2026-04-18T12:37:21.998Z</time></trkpt><trkpt lat="44.91758896781431" lon="9.095968548449337"><ele>538.5</ele><time>2026-04-18T12:37:22.998Z</time></trkpt><trkpt lat="44.917510110488" lon="9.095887080815771"><ele>539.0</ele><time>2026-04-18T12:37:23.998Z</time></trkpt><trkpt lat="44.917447822640504" lon="9.095815256394944"><ele>539.5</ele><time>2026-04-18T12:37:25.001Z</time></trkpt><trkpt lat="44.91738893150683" lon="9.095734144077149"><ele>540.0</ele><time>2026-04-18T12:37:26.001Z</time></trkpt><trkpt lat="44.91732054531461" lon="9.095663792140243"><ele>540.5</ele><time>2026-04-18T12:37:27.001Z</time></trkpt><trkpt lat="44.917232662556415" lon="9.09562238219659"><ele>541.0</ele><time>2026-04-18T12:37:28.001Z</time></trkpt><trkpt lat="44.9171428065327" lon="9.09559511200749"><ele>538.1666666666667</ele><time>2026-04-18T12:37:29.001Z</time></trkpt><trkpt lat="44.91705977655773" lon="9.095564303509244"><ele>535.3333333333334</ele><time>2026-04-18T12:37:30.001Z</time></trkpt><trkpt lat="44.91699233957383" lon="9.095525705133115"><ele>532.5</ele><time>2026-04-18T12:37:31.001Z</time></trkpt><trkpt lat="44.91696225723973" lon="9.09544452938005"><ele>529.6666666666666</ele><time>2026-04-18T12:37:32.001Z</time></trkpt><trkpt lat="44.91695398283774" lon="9.095339954340721"><ele>526.8333333333333</ele><time>2026-04-18T12:37:33.001Z</time></trkpt><trkpt lat="44.91692982884321" lon="9.095223187555694"><ele>524.0</ele><time>2026-04-18T12:37:34.001Z</time></trkpt><trkpt lat="44.916900118953514" lon="9.095107324336247"><ele>524.0</ele><time>2026-04-18T12:37:35.001Z</time></trkpt><trkpt lat="44.91686218170742" lon="9.09498616566041"><ele>524.0</ele><time>2026-04-18T12:37:36.001Z</time></trkpt><trkpt lat="44.916824699305245" lon="9.094854825501994"><ele>524.0</ele><time>2026-04-18T12:37:37.001Z</time></trkpt><trkpt lat="44.916789724789204" lon="9.094731051035149"><ele>524.0</ele><time>2026-04-18T12:37:38.001Z</time></trkpt><trkpt lat="44.91675980596131" lon="9.094621984371374"><ele>524.0</ele><time>2026-04-18T12:37:39.001Z</time></trkpt><trkpt lat="44.91673587723106" lon="9.094524362065247"><ele>524.0</ele><time>2026-04-18T12:37:40.001Z</time></trkpt><trkpt lat="44.91670458438705" lon="9.094428680173563"><ele>524.4</ele><time>2026-04-18T12:37:41.001Z</time></trkpt><trkpt lat="44.91665576225241" lon="9.094336362709397"><ele>524.8</ele><time>2026-04-18T12:37:42.001Z</time></trkpt><trkpt lat="44.916569134527954" lon="9.094270292962012"><ele>525.2</ele><time>2026-04-18T12:37:43.001Z</time></trkpt><trkpt lat="44.91649113195668" lon="9.094198141735315"><ele>525.6</ele><time>2026-04-18T12:37:44.001Z</time></trkpt><trkpt lat="44.916411665188996" lon="9.094124636177556"><ele>526.0</ele><time>2026-04-18T12:37:45.001Z</time></trkpt><trkpt lat="44.91633604967183" lon="9.094058456652418"><ele>524.0</ele><time>2026-04-18T12:37:46.001Z</time></trkpt><trkpt lat="44.91626334505973" lon="9.09400037524805"><ele>522.0</ele><time>2026-04-18T12:37:47.001Z</time></trkpt><trkpt lat="44.916208389074" lon="9.093942382831223"><ele>520.0</ele><time>2026-04-18T12:37:48.001Z</time></trkpt><trkpt lat="44.916140823842504" lon="9.093775176948173"><ele>518.0</ele><time>2026-04-18T12:37:50.001Z</time></trkpt><trkpt lat="44.916107920161814" lon="9.09366226546092"><ele>516.0</ele><time>2026-04-18T12:37:51.001Z</time></trkpt><trkpt lat="44.9160783514934" lon="9.093546615044906"><ele>516.0</ele><time>2026-04-18T12:37:52.001Z</time></trkpt><trkpt lat="44.91606376403176" lon="9.093448622226951"><ele>516.0</ele><time>2026-04-18T12:37:53Z</time></trkpt><trkpt lat="44.916057366014805" lon="9.093348073252681"><ele>516.0</ele><time>2026-04-18T12:37:54Z</time></trkpt><trkpt lat="44.91605862841773" lon="9.09318202776844"><ele>516.0</ele><time>2026-04-18T12:37:56Z</time></trkpt><trkpt lat="44.91611165915186" lon="9.09308725912339"><ele>516.0</ele><time>2026-04-18T12:37:58Z</time></trkpt><trkpt lat="44.91613916907533" lon="9.09296570911481"><ele>516.0</ele><time>2026-04-18T12:38:00Z</time></trkpt><trkpt lat="44.91608568695532" lon="9.092865386749779"><ele>516.0</ele><time>2026-04-18T12:38:02Z</time></trkpt><trkpt lat="44.91596057514771" lon="9.092717884672236"><ele>516.0</ele><time>2026-04-18T12:38:05Z</time></trkpt><trkpt lat="44.91591216416362" lon="9.092639627068591"><ele>516.0</ele><time>2026-04-18T12:38:08Z</time></trkpt><trkpt lat="44.91589955584801" lon="9.092526995162887"><ele>516.0</ele><time>2026-04-18T12:38:10Z</time></trkpt><trkpt lat="44.91594370984796" lon="9.092366210509201"><ele>516.0</ele><time>2026-04-18T12:38:12Z</time></trkpt><trkpt lat="44.91597480493998" lon="9.092282054139236"><ele>516.0</ele><time>2026-04-18T12:38:13Z</time></trkpt><trkpt lat="44.916000421363535" lon="9.092196209096455"><ele>516.0</ele><time>2026-04-18T12:38:14Z</time></trkpt><trkpt lat="44.91604625377414" lon="9.092036986821125"><ele>516.0</ele><time>2026-04-18T12:38:16Z</time></trkpt><trkpt lat="44.91607264587369" lon="9.091954073885516"><ele>516.0</ele><time>2026-04-18T12:38:17Z</time></trkpt><trkpt lat="44.91609624425991" lon="9.091863742934034"><ele>516.0</ele><time>2026-04-18T12:38:18Z</time></trkpt><trkpt lat="44.916127331102004" lon="9.091693642796434"><ele>516.0</ele><time>2026-04-18T12:38:20Z</time></trkpt><trkpt lat="44.916163850055256" lon="9.091521768582195"><ele>514.1666666666666</ele><time>2026-04-18T12:38:22Z</time></trkpt><trkpt lat="44.91618594363229" lon="9.091432721503367"><ele>512.3333333333334</ele><time>2026-04-18T12:38:23Z</time></trkpt><trkpt lat="44.916209345862725" lon="9.091334327400673"><ele>510.5</ele><time>2026-04-18T12:38:24Z</time></trkpt><trkpt lat="44.91624058818412" lon="9.09124393620221"><ele>508.6666666666667</ele><time>2026-04-18T12:38:25Z</time></trkpt><trkpt lat="44.916296923640985" lon="9.091120132817647"><ele>506.83333333333337</ele><time>2026-04-18T12:38:27Z</time></trkpt><trkpt lat="44.91625781417284" lon="9.091032995133123"><ele>505.0</ele><time>2026-04-18T12:38:29.999Z</time></trkpt><trkpt lat="44.91620028179172" lon="9.091095600595253"><ele>505.0</ele><time>2026-04-18T12:38:31.999Z</time></trkpt><trkpt lat="44.9161259521439" lon="9.091206972635872"><ele>505.0</ele><time>2026-04-18T12:38:33.999Z</time></trkpt><trkpt lat="44.91604045037658" lon="9.091280018830934"><ele>505.0</ele><time>2026-04-18T12:38:35.999Z</time></trkpt><trkpt lat="44.9159730579681" lon="9.091327479039382"><ele>505.0</ele><time>2026-04-18T12:38:37.999Z</time></trkpt><trkpt lat="44.91588461709521" lon="9.091283909219285"><ele>505.0</ele><time>2026-04-18T12:38:39.999Z</time></trkpt><trkpt lat="44.915812433579426" lon="9.09119939504614"><ele>504.1666666666667</ele><time>2026-04-18T12:38:41.999Z</time></trkpt><trkpt lat="44.915775749672264" lon="9.091050583169354"><ele>503.33333333333337</ele><time>2026-04-18T12:38:43.999Z</time></trkpt><trkpt lat="44.91575767068949" lon="9.090955109685545"><ele>502.5</ele><time>2026-04-18T12:38:45.999Z</time></trkpt><trkpt lat="44.915693980794856" lon="9.090925492327292"><ele>501.66666666666663</ele><time>2026-04-18T12:38:50.999Z</time></trkpt><trkpt lat="44.915625991998915" lon="9.090944870866506"><ele>500.8333333333333</ele><time>2026-04-18T12:38:54.999Z</time></trkpt><trkpt lat="44.91560642169145" lon="9.090858570319202"><ele>500.0</ele><time>2026-04-18T12:38:57.999Z</time></trkpt><trkpt lat="44.915653027468665" lon="9.0907733949875"><ele>498.49999999999994</ele><time>2026-04-18T12:39:00.999Z</time></trkpt><trkpt lat="44.91562737738362" lon="9.090672030715528"><ele>497.0</ele><time>2026-04-18T12:39:03.999Z</time></trkpt><trkpt lat="44.91556453978064" lon="9.090593722989643"><ele>495.5</ele><time>2026-04-18T12:39:05.999Z</time></trkpt><trkpt lat="44.91561832416739" lon="9.090525916835889"><ele>494.0</ele><time>2026-04-18T12:39:07.999Z</time></trkpt><trkpt lat="44.91569621725977" lon="9.090592939189703"><ele>492.49999999999994</ele><time>2026-04-18T12:39:09.999Z</time></trkpt><trkpt lat="44.91573482285026" lon="9.090436396739282"><ele>491.0</ele><time>2026-04-18T12:39:12.998Z</time></trkpt><trkpt lat="44.91573790572541" lon="9.090308052875024"><ele>490.99999999999994</ele><time>2026-04-18T12:39:13.998Z</time></trkpt><trkpt lat="44.91575461358037" lon="9.090216814872676"><ele>491.0</ele><time>2026-04-18T12:39:14.998Z</time></trkpt><trkpt lat="44.91584451131569" lon="9.09013633256086"><ele>491.0</ele><time>2026-04-18T12:39:16.998Z</time></trkpt><trkpt lat="44.915909422977066" lon="9.090118638589516"><ele>491.0</ele><time>2026-04-18T12:39:17.998Z</time></trkpt><trkpt lat="44.915984171023474" lon="9.090115767447983"><ele>490.99999999999994</ele><time>2026-04-18T12:39:18.998Z</time></trkpt><trkpt lat="44.91607015385122" lon="9.09001235447197"><ele>491.0</ele><time>2026-04-18T12:39:20.998Z</time></trkpt><trkpt lat="44.91608243230751" lon="9.089923359080156"><ele>489.8333333333333</ele><time>2026-04-18T12:39:21.998Z</time></trkpt><trkpt lat="44.91609541073994" lon="9.089814969313759"><ele>488.66666666666663</ele><time>2026-04-18T12:39:22.998Z</time></trkpt><trkpt lat="44.9161067487381" lon="9.089718461992105"><ele>487.5</ele><time>2026-04-18T12:39:23.998Z</time></trkpt><trkpt lat="44.916118454305696" lon="9.089617378377636"><ele>486.33333333333337</ele><time>2026-04-18T12:39:24.998Z</time></trkpt><trkpt lat="44.91614481199333" lon="9.089526226849522"><ele>485.1666666666667</ele><time>2026-04-18T12:39:25.998Z</time></trkpt><trkpt lat="44.91616414107971" lon="9.089416997137452"><ele>484.0</ele><time>2026-04-18T12:39:27.998Z</time></trkpt><trkpt lat="44.916099676034804" lon="9.089343211974958"><ele>484.0</ele><time>2026-04-18T12:39:29.998Z</time></trkpt><trkpt lat="44.916010395196835" lon="9.089291238767945"><ele>484.0</ele><time>2026-04-18T12:39:32.001Z</time></trkpt><trkpt lat="44.91596008381366" lon="9.089222177749184"><ele>484.0</ele><time>2026-04-18T12:39:35.001Z</time></trkpt><trkpt lat="44.91592140816604" lon="9.089146957916501"><ele>484.0</ele><time>2026-04-18T12:39:44.001Z</time></trkpt></trkseg></trk></gpx>